M I D A S
Marine Information and Data Acquisition System
Tripno 1454 of the Zeeleeuw from 2008-04-09 07:03:28 to 2008-04-09 10:24:47
Back to CruiseResearch ActivitiesStationsMapUnderway DataData graphs

EquipmentUnitsComment
TimeDGPSUTC
LatitudeDGPSDM.mWGS84
LongitudeDGPSDM.mWGS84
TemperatureSBE03/SBE38deg celciusITS90
ConductivitySBE21S/mITS90
SalinitySBE21 Practical Salinity Units
ChlorophylAChelsea fluorimeterg/lCalibrated in Aceton
Missing or incorrect values are displayed as -999
Sea surface data collected by the RV Zeeleeuw from 2008-04-09 07:06:11 to 2008-04-09 10:35:00
                                                                                    Next 1000 lines
Time Latitude Longitude Temperature Conductivity Salinity ChlorophylA
2008-04-09 07:06:21 51°13.663 2°55.95 14.5463 0.209866 1.261635 -1.766697
2008-04-09 07:06:26 51°13.664 2°55.947 14.5463 0.21141 1.271337 -1.766697
2008-04-09 07:06:31 51°13.664 2°55.943 14.5468 0.210483 1.265472 -1.766697
2008-04-09 07:06:37 51°13.666 2°55.938 14.5466 0.210792 1.2675 -1.766697
2008-04-09 07:06:42 51°13.667 2°55.932 14.5466 0.210792 1.2675 -1.766697
2008-04-09 07:06:48 51°13.669 2°55.926 14.547 0.211307 1.270685 -1.766697
2008-04-09 07:06:54 51°13.672 2°55.918 14.5469 0.210689 1.266848 -1.766697
2008-04-09 07:06:59 51°13.674 2°55.911 14.5465 0.21141 1.271435 -1.766697
2008-04-09 07:07:05 51°13.677 2°55.902 14.5467 0.21141 1.271484 -1.766697
2008-04-09 07:07:10 51°13.68 2°55.894 14.5468 0.210998 1.268925 -1.766697
2008-04-09 07:07:15 51°13.682 2°55.886 14.5466 0.210998 1.268925 -1.766697
2008-04-09 07:07:20 51°13.685 2°55.877 14.5465 0.211513 1.272185 -1.766697
2008-04-09 07:07:25 51°13.687 2°55.869 14.5471 0.21141 1.271533 -1.766697
2008-04-09 07:07:30 51°13.69 2°55.86 14.5472 0.210895 1.268298 -1.766697
2008-04-09 07:07:35 51°13.693 2°55.852 14.5471 0.21141 1.271557 -1.766697
2008-04-09 07:07:40 51°13.696 2°55.843 14.5475 0.211204 1.270229 -1.766697
2008-04-09 07:07:45 51°13.699 2°55.834 14.5474 0.211204 1.270229 -1.766697
2008-04-09 07:07:50 51°13.703 2°55.825 14.5475 0.210586 1.266391 -1.766697
2008-04-09 07:07:55 51°13.706 2°55.815 14.5475 0.211615 1.272837 -1.766697
2008-04-09 07:08:00 51°13.71 2°55.806 14.5476 0.210586 1.266318 -1.766697
2008-04-09 07:08:05 51°13.714 2°55.797 14.5479 0.211101 1.269626 -1.766697
2008-04-09 07:08:10 51°13.718 2°55.787 14.5477 0.210895 1.268298 -1.766697
2008-04-09 07:08:15 51°13.722 2°55.778 14.548 0.210895 1.268298 -1.766697
2008-04-09 07:08:20 51°13.727 2°55.768 14.5481 0.210586 1.26644 -1.766697
2008-04-09 07:08:25 51°13.731 2°55.758 14.5481 0.211101 1.269626 -1.766697
2008-04-09 07:08:30 51°13.736 2°55.749 14.5481 0.210483 1.265739 -1.766697
2008-04-09 07:08:35 51°13.74 2°55.74 14.5481 0.210895 1.268322 -1.766697
2008-04-09 07:08:40 51°13.745 2°55.731 14.5482 0.209866 1.261829 -1.766697
2008-04-09 07:08:45 51°13.75 2°55.722 14.548 0.209866 1.261829 -1.766697
2008-04-09 07:08:50 51°13.755 2°55.713 14.5482 0.210792 1.26767 -1.766697
2008-04-09 07:08:55 51°13.761 2°55.705 14.5483 0.210277 1.264387 -1.766697
2008-04-09 07:09:00 51°13.767 2°55.697 14.5485 0.209866 1.261877 -1.766697
2008-04-09 07:09:05 51°13.773 2°55.689 14.5485 0.210586 1.266342 -1.766697
2008-04-09 07:09:10 51°13.779 2°55.682 14.5485 0.20966 1.26055 -1.766697
2008-04-09 07:09:15 51°13.785 2°55.675 14.5487 0.20966 1.26055 -1.766697
2008-04-09 07:09:20 51°13.791 2°55.668 14.5489 0.21038 1.265087 -1.766697
2008-04-09 07:09:25 51°13.798 2°55.661 14.549 0.209866 1.261877 -1.766697
2008-04-09 07:09:30 51°13.804 2°55.655 14.5488 0.210071 1.263229 -1.801521
2008-04-09 07:09:35 51°13.811 2°55.649 14.5493 0.20966 1.260598 -1.766697
2008-04-09 07:09:40 51°13.818 2°55.643 14.5493 0.210277 1.264533 -1.766697
2008-04-09 07:09:45 51°13.825 2°55.637 14.5491 0.210277 1.264533 -1.766697
2008-04-09 07:09:50 51°13.832 2°55.632 14.5493 0.209763 1.261226 -1.766697
2008-04-09 07:09:55 51°13.839 2°55.628 14.5495 0.209454 1.259319 -1.766697
2008-04-09 07:10:00 51°13.846 2°55.624 14.5492 0.209969 1.262529 -1.766697
2008-04-09 07:10:05 51°13.854 2°55.621 14.5497 0.209145 1.257316 -1.766697
2008-04-09 07:10:10 51°13.861 2°55.618 14.5495 0.209454 1.259247 -1.766697
2008-04-09 07:10:15 51°13.868 2°55.616 14.5501 0.209454 1.259247 -1.766697
2008-04-09 07:10:20 51°13.875 2°55.615 14.5502 0.209351 1.258571 -1.766697
2008-04-09 07:10:25 51°13.883 2°55.615 14.5497 0.208733 1.25471 -1.766697
2008-04-09 07:10:30 51°13.89 2°55.616 14.5503 0.209248 1.257944 -1.766697
2008-04-09 07:10:35 51°13.897 2°55.617 14.5501 0.208527 1.253432 -1.766697
2008-04-09 07:10:40 51°13.904 2°55.619 14.5502 0.209145 1.257413 -1.766697
2008-04-09 07:10:45 51°13.91 2°55.622 14.5504 0.209145 1.257413 -1.766697
2008-04-09 07:10:50 51°13.916 2°55.625 14.5508 0.209145 1.25751 -1.766697
2008-04-09 07:10:55 51°13.921 2°55.627 14.5507 0.209042 1.256882 -1.766697
2008-04-09 07:11:00 51°13.927 2°55.63 14.5508 0.209248 1.258258 -1.766697
2008-04-09 07:11:05 51°13.932 2°55.633 14.5509 0.209454 1.259586 -1.766697
2008-04-09 07:11:10 51°13.936 2°55.636 14.5511 0.209351 1.258982 -1.766697
2008-04-09 07:11:15 51°13.941 2°55.639 14.5512 0.209351 1.258982 -1.766697
2008-04-09 07:11:20 51°13.945 2°55.642 14.5511 0.209454 1.259658 -1.766697
2008-04-09 07:11:25 51°13.948 2°55.645 14.5511 0.209763 1.261517 -1.766697
2008-04-09 07:11:30 51°13.952 2°55.647 14.5516 0.208527 1.253769 -1.766697
2008-04-09 07:11:35 51°13.955 2°55.65 14.5514 0.209866 1.262169 -1.766697
2008-04-09 07:11:40 51°13.957 2°55.653 14.5517 0.209145 1.257679 -1.766697
2008-04-09 07:11:45 51°13.96 2°55.655 14.5521 0.209145 1.257679 -1.766697
2008-04-09 07:11:50 51°13.962 2°55.656 14.5518 0.208836 1.255652 -1.766697
2008-04-09 07:11:55 51°13.963 2°55.657 14.5522 0.208733 1.254952 -1.766697
2008-04-09 07:12:00 51°13.963 2°55.656 14.5519 0.208322 1.252081 -1.627401
2008-04-09 07:12:05 51°13.963 2°55.654 14.5521 0.208013 1.250175 -1.766697
2008-04-09 07:12:10 51°13.963 2°55.651 14.5521 0.208733 1.254976 -1.766697
2008-04-09 07:12:15 51°13.964 2°55.648 14.5524 0.208733 1.254976 -1.766697
2008-04-09 07:12:20 51°13.964 2°55.644 14.5525 0.209557 1.260334 -1.766697
2008-04-09 07:12:25 51°13.965 2°55.639 14.5526 0.208219 1.252007 -1.801521
2008-04-09 07:12:30 51°13.966 2°55.633 14.5524 0.213365 1.284689 -1.766697
2008-04-09 07:12:35 51°13.968 2°55.626 14.5529 0.208939 1.257028 -1.801521
2008-04-09 07:12:40 51°13.97 2°55.619 14.5528 0.213365 1.285084 -1.766697
2008-04-09 07:12:45 51°13.973 2°55.611 14.5533 0.213365 1.285084 -1.766697
2008-04-09 07:12:50 51°13.976 2°55.602 14.5532 0.211615 1.273914 -1.766697
2008-04-09 07:12:55 51°13.979 2°55.593 14.5535 0.212542 1.279886 -1.766697
2008-04-09 07:13:00 51°13.983 2°55.584 14.5534 0.213365 1.284911 -1.766697
2008-04-09 07:13:05 51°13.988 2°55.574 14.5537 0.211718 1.274517 -1.766697
2008-04-09 07:13:10 51°13.993 2°55.564 14.5535 0.212851 1.281623 -1.801521
2008-04-09 07:13:15 51°13.998 2°55.553 14.5539 0.212851 1.281623 -1.801521
2008-04-09 07:13:20 51°14.004 2°55.543 14.5539 0.211924 1.2757 -1.766697
2008-04-09 07:13:25 51°14.01 2°55.533 14.5544 0.211718 1.274444 -1.766697
2008-04-09 07:13:30 51°14.017 2°55.522 14.5545 0.212233 1.277633 -1.766697
2008-04-09 07:13:35 51°14.025 2°55.512 14.5545 0.21141 1.272438 -1.766697
2008-04-09 07:13:40 51°14.032 2°55.503 14.5544 0.212954 1.282325 -1.766697
2008-04-09 07:13:45 51°14.041 2°55.494 14.555 0.212954 1.282325 -1.766697
2008-04-09 07:13:50 51°14.049 2°55.485 14.5548 0.211821 1.275195 -1.766697
2008-04-09 07:13:55 51°14.057 2°55.476 14.5551 0.213262 1.284505 -1.801521
2008-04-09 07:14:00 51°14.066 2°55.467 14.5555 0.212542 1.279812 -1.766697
2008-04-09 07:14:05 51°14.075 2°55.458 14.5557 0.21213 1.277103 -1.766697
2008-04-09 07:14:10 51°14.084 2°55.448 14.5556 0.212027 1.276401 -1.766697
2008-04-09 07:14:15 51°14.093 2°55.439 14.5559 0.212027 1.276401 -1.766697
2008-04-09 07:14:20 51°14.102 2°55.431 14.5562 0.211307 1.271908 -1.766697
2008-04-09 07:14:25 51°14.112 2°55.422 14.5562 0.211615 1.273939 -1.801521
2008-04-09 07:14:30 51°14.121 2°55.414 14.5567 0.212233 1.278174 -1.766697
2008-04-09 07:14:35 51°14.131 2°55.406 14.5565 0.211615 1.274012 -1.766697
2008-04-09 07:14:40 51°14.14 2°55.398 14.557 0.211924 1.275945 -1.766697
2008-04-09 07:14:45 51°14.15 2°55.389 14.5575 0.211924 1.275945 -1.766697
2008-04-09 07:14:50 51°14.159 2°55.38 14.5576 0.211513 1.273237 -1.766697
2008-04-09 07:14:55 51°14.169 2°55.371 14.5579 0.210895 1.269445 -1.766697
2008-04-09 07:15:00 51°14.178 2°55.362 14.5579 0.210792 1.26867 -1.766697
2008-04-09 07:15:05 51°14.187 2°55.353 14.5582 0.210998 1.269902 -1.766697
2008-04-09 07:15:10 51°14.196 2°55.343 14.5582 0.209969 1.263501 -1.766697
2008-04-09 07:15:15 51°14.205 2°55.332 14.5587 0.209969 1.263501 -1.766697
2008-04-09 07:15:20 51°14.214 2°55.322 14.5591 0.20966 1.261641 -1.766697
2008-04-09 07:15:25 51°14.223 2°55.311 14.5592 0.210689 1.268189 -1.766697
2008-04-09 07:15:30 51°14.231 2°55.3 14.5597 0.209145 1.258477 -1.766697
2008-04-09 07:15:35 51°14.24 2°55.288 14.5597 0.209866 1.262946 -1.766697
2008-04-09 07:15:40 51°14.248 2°55.276 14.56 0.20966 1.261666 -1.766697
2008-04-09 07:15:45 51°14.256 2°55.264 14.5605 0.20966 1.261666 -1.766697
2008-04-09 07:15:50 51°14.264 2°55.251 14.5609 0.209145 1.258574 -1.766697
2008-04-09 07:15:55 51°14.271 2°55.239 14.5609 0.210174 1.265048 -1.801521
2008-04-09 07:16:00 51°14.279 2°55.226 14.5611 0.209454 1.260531 -1.766697
2008-04-09 07:16:04 51°14.285 2°55.216 14.5614 0.209969 1.263792 -1.766697
2008-04-09 07:16:09 51°14.293 2°55.203 14.5614 0.209454 1.260507 -1.766697
2008-04-09 07:16:14 51°14.3 2°55.189 14.5616 0.209454 1.260507 -1.766697
2008-04-09 07:16:19 51°14.307 2°55.176 14.5624 0.209866 1.263213 -1.766697
2008-04-09 07:16:24 51°14.315 2°55.162 14.5623 0.209763 1.262561 -1.766697
2008-04-09 07:16:29 51°14.322 2°55.148 14.5628 0.209454 1.260628 -1.801521
2008-04-09 07:16:34 51°14.329 2°55.133 14.5633 0.209763 1.262512 -1.766697
2008-04-09 07:16:38 51°14.334 2°55.121 14.5633 0.209557 1.261159 -1.766697
2008-04-09 07:16:43 51°14.341 2°55.106 14.5639 0.209557 1.261159 -1.766697
2008-04-09 07:16:48 51°14.348 2°55.091 14.5641 0.20966 1.261835 -1.766697
2008-04-09 07:16:53 51°14.355 2°55.075 14.5639 0.209866 1.263189 -1.801521
2008-04-09 07:16:58 51°14.363 2°55.058 14.5646 0.209248 1.259299 -1.766697
2008-04-09 07:17:02 51°14.369 2°55.044 14.5651 0.207807 1.250074 -1.697049
2008-04-09 07:17:07 51°14.376 2°55.025 14.5649 0.210277 1.265652 -1.731873
2008-04-09 07:17:12 51°14.384 2°55.006 14.5654 0.210277 1.265652 -1.731873
2008-04-09 07:17:17 51°14.392 2°54.987 14.5657 0.207807 1.250146 -1.766697
2008-04-09 07:17:22 51°14.399 2°54.967 14.5663 0.208733 1.255917 -1.766697
2008-04-09 07:17:27 51°14.407 2°54.948 14.5659 0.208425 1.253793 -1.627401
2008-04-09 07:17:31 51°14.413 2°54.932 14.5663 0.209454 1.261041 -1.766697
2008-04-09 07:17:36 51°14.423 2°54.913 14.5665 0.212542 1.280773 -1.766697
2008-04-09 07:17:41 51°14.433 2°54.895 14.5669 0.212542 1.280773 -1.766697
2008-04-09 07:17:46 51°14.443 2°54.879 14.5672 0.211615 1.275436 -1.731873
2008-04-09 07:17:51 51°14.455 2°54.863 14.5671 0.214704 1.294945 -1.766697
2008-04-09 07:17:57 51°14.469 2°54.847 14.5674 0.213777 1.289061 -1.766697
2008-04-09 07:18:02 51°14.482 2°54.833 14.5675 0.216042 1.303372 -1.766697
2008-04-09 07:18:06 51°14.492 2°54.824 14.5681 0.214704 1.294895 -1.801521
2008-04-09 07:18:11 51°14.505 2°54.813 14.5684 0.214704 1.294895 -1.801521
2008-04-09 07:18:16 51°14.519 2°54.803 14.5687 0.215012 1.296682 -1.766697
2008-04-09 07:18:22 51°14.535 2°54.791 14.5688 0.215218 1.297889 -1.766697
2008-04-09 07:18:26 51°14.546 2°54.784 14.5694 0.215424 1.299548 -1.766697
2008-04-09 07:18:31 51°14.56 2°54.777 14.5695 0.214704 1.29502 -1.766697
2008-04-09 07:18:37 51°14.577 2°54.769 14.5697 0.216968 1.309462 -1.801521
2008-04-09 07:18:42 51°14.591 2°54.764 14.5702 0.216968 1.309462 -1.801521
2008-04-09 07:18:46 51°14.602 2°54.76 14.5705 0.215424 1.299723 -1.801521
2008-04-09 07:18:51 51°14.616 2°54.756 14.571 0.216453 1.306089 -1.766697
2008-04-09 07:18:57 51°14.634 2°54.752 14.5704 0.216556 1.306593 -1.766697
2008-04-09 07:19:02 51°14.648 2°54.75 14.5711 0.215527 1.300327 -1.801521
2008-04-09 07:19:06 51°14.659 2°54.749 14.5711 0.217894 1.315302 -1.766697
2008-04-09 07:19:11 51°14.673 2°54.749 14.5715 0.217894 1.315302 -1.766697
2008-04-09 07:19:16 51°14.687 2°54.75 14.5718 0.216145 1.304353 -1.766697
2008-04-09 07:19:22 51°14.704 2°54.751 14.5725 0.21738 1.312029 -1.766697
2008-04-09 07:19:26 51°14.715 2°54.753 14.5724 0.216145 1.304076 -1.801521
2008-04-09 07:19:31 51°14.73 2°54.755 14.5731 0.21563 1.300806 -1.766697
2008-04-09 07:19:37 51°14.746 2°54.757 14.5734 0.214498 1.293438 -1.766697
2008-04-09 07:19:41 51°14.757 2°54.759 14.5738 0.214498 1.293438 -1.766697
2008-04-09 07:19:46 51°14.771 2°54.761 14.5742 0.214086 1.290574 -1.766697
2008-04-09 07:19:51 51°14.785 2°54.762 14.5745 0.211718 1.275401 -1.731873
2008-04-09 07:19:56 51°14.799 2°54.763 14.5748 0.212336 1.279418 -1.766697
2008-04-09 07:20:02 51°14.816 2°54.764 14.5754 0.211718 1.275499 -1.766697
2008-04-09 07:20:06 51°14.828 2°54.764 14.5756 0.210277 1.266505 -1.766697
2008-04-09 07:20:11 51°14.842 2°54.765 14.576 0.210277 1.266505 -1.766697
2008-04-09 07:20:17 51°14.858 2°54.766 14.5761 0.211101 1.271704 -1.766697
2008-04-09 07:20:22 51°14.873 2°54.767 14.5764 0.210689 1.269043 -1.766697
2008-04-09 07:20:26 51°14.884 2°54.767 14.5765 0.210483 1.267835 -1.766697
2008-04-09 07:20:31 51°14.898 2°54.768 14.577 0.211101 1.271777 -1.766697
2008-04-09 07:20:36 51°14.912 2°54.769 14.5774 0.210895 1.27052 -1.766697
2008-04-09 07:20:41 51°14.925 2°54.77 14.5777 0.210895 1.27052 -1.766697
2008-04-09 07:20:46 51°14.939 2°54.771 14.5782 0.209969 1.264742 -1.766697
2008-04-09 07:20:51 51°14.953 2°54.772 14.5783 0.21141 1.27381 -1.766697
2008-04-09 07:20:56 51°14.967 2°54.774 14.5786 0.210174 1.266047 -1.801521
2008-04-09 07:21:01 51°14.981 2°54.775 14.5789 0.211615 1.275264 -1.766697
2008-04-09 07:21:06 51°14.995 2°54.776 14.5793 0.211204 1.272675 -1.766697
2008-04-09 07:21:11 51°15.009 2°54.777 14.5795 0.211204 1.272675 -1.766697
2008-04-09 07:21:16 51°15.023 2°54.778 14.5799 0.210277 1.266749 -1.766697
2008-04-09 07:21:21 51°15.037 2°54.779 14.5804 0.210586 1.268684 -1.801521
2008-04-09 07:21:26 51°15.051 2°54.781 14.5805 0.209763 1.263485 -1.766697
2008-04-09 07:21:31 51°15.065 2°54.782 14.5807 0.209969 1.264839 -1.766697
2008-04-09 07:21:36 51°15.079 2°54.783 14.581 0.210586 1.268781 -1.766697
2008-04-09 07:21:41 51°15.092 2°54.785 14.5817 0.210586 1.268781 -1.766697
2008-04-09 07:21:46 51°15.106 2°54.786 14.5821 0.210277 1.266847 -1.766697
2008-04-09 07:21:51 51°15.12 2°54.788 14.5821 0.21038 1.267475 -1.766697
2008-04-09 07:21:56 51°15.134 2°54.79 14.5825 0.211615 1.275608 -1.766697
2008-04-09 07:22:01 51°15.147 2°54.794 14.5827 0.210483 1.268446 -1.766697
2008-04-09 07:22:06 51°15.161 2°54.796 14.583 0.210483 1.268519 -1.766697
2008-04-09 07:22:11 51°15.175 2°54.799 14.5834 0.210483 1.268519 -1.766697
2008-04-09 07:22:16 51°15.188 2°54.802 14.5839 0.211718 1.276335 -1.766697
2008-04-09 07:22:21 51°15.202 2°54.806 14.5838 0.211513 1.274832 -1.766697
2008-04-09 07:22:26 51°15.216 2°54.809 14.5849 0.208939 1.258457 -1.731873
2008-04-09 07:22:31 51°15.229 2°54.812 14.5845 0.212542 1.281242 -1.731873
2008-04-09 07:22:36 51°15.243 2°54.816 14.585 0.209763 1.264094 -1.801521
2008-04-09 07:22:41 51°15.256 2°54.822 14.5855 0.209763 1.264094 -1.801521
2008-04-09 07:22:46 51°15.269 2°54.828 14.5854 0.212645 1.282291 -1.801521
2008-04-09 07:22:51 51°15.282 2°54.835 14.5859 0.210895 1.271181 -1.766697
2008-04-09 07:22:56 51°15.295 2°54.841 14.5862 0.211821 1.276964 -1.766697
2008-04-09 07:23:01 51°15.308 2°54.848 14.5863 0.210998 1.27159 -1.766697
2008-04-09 07:23:06 51°15.321 2°54.855 14.5872 0.208939 1.258481 -1.766697
2008-04-09 07:23:11 51°15.334 2°54.863 14.5869 0.208939 1.258481 -1.766697
2008-04-09 07:23:16 51°15.346 2°54.871 14.5874 0.213262 1.286263 -1.766697
2008-04-09 07:23:21 51°15.359 2°54.881 14.5876 0.209866 1.264747 -1.766697
2008-04-09 07:23:26 51°15.371 2°54.89 14.5878 0.213468 1.287571 -1.766697
2008-04-09 07:23:31 51°15.383 2°54.9 14.5886 0.210792 1.270528 -1.731873
2008-04-09 07:23:36 51°15.395 2°54.911 14.5887 0.211821 1.276988 -1.766697
2008-04-09 07:23:41 51°15.406 2°54.921 14.5894 0.211821 1.276988 -1.766697
2008-04-09 07:23:46 51°15.418 2°54.932 14.5894 0.212954 1.28398 -1.731873
2008-04-09 07:23:51 51°15.43 2°54.943 14.5899 0.209969 1.265229 -1.766697
2008-04-09 07:23:56 51°15.442 2°54.953 14.59 0.211924 1.277568 -1.766697
2008-04-09 07:24:01 51°15.453 2°54.964 14.5904 0.211101 1.272366 -1.766697
2008-04-09 07:24:06 51°15.465 2°54.975 14.5911 0.210174 1.266462 -1.731873
2008-04-09 07:24:11 51°15.477 2°54.985 14.5913 0.210174 1.266462 -1.731873
2008-04-09 07:24:16 51°15.489 2°54.996 14.591 0.20966 1.26327 -1.766697
2008-04-09 07:24:21 51°15.501 2°55.006 14.5916 0.210072 1.266004 -1.766697
2008-04-09 07:24:26 51°15.513 2°55.017 14.5922 0.210689 1.26985 -1.731873
2008-04-09 07:24:31 51°15.524 2°55.028 14.5923 0.20863 1.256789 -1.697049
2008-04-09 07:24:36 51°15.536 2°55.039 14.5921 0.209454 1.262134 -1.766697
2008-04-09 07:24:41 51°15.548 2°55.049 14.5927 0.209454 1.262134 -1.766697
2008-04-09 07:24:46 51°15.56 2°55.059 14.5929 0.210895 1.271083 -1.697049
2008-04-09 07:24:51 51°15.572 2°55.07 14.5935 0.209763 1.264118 -1.766697
2008-04-09 07:24:56 51°15.584 2°55.081 14.5936 0.209557 1.26286 -1.766697
2008-04-09 07:25:01 51°15.595 2°55.092 14.5939 0.209763 1.263972 -1.766697
2008-04-09 07:25:06 51°15.607 2°55.103 14.5941 0.208836 1.257998 -1.731873
2008-04-09 07:25:11 51°15.619 2°55.113 14.5943 0.208836 1.257998 -1.731873
2008-04-09 07:25:16 51°15.63 2°55.124 14.5945 0.20863 1.256789 -1.766697
2008-04-09 07:25:21 51°15.643 2°55.134 14.5953 0.209454 1.262013 -1.766697
2008-04-09 07:25:26 51°15.655 2°55.144 14.5953 0.209351 1.261408 -1.766697
2008-04-09 07:25:31 51°15.667 2°55.154 14.5957 0.209042 1.259522 -1.766697
2008-04-09 07:25:36 51°15.679 2°55.163 14.5957 0.209866 1.264869 -1.766697
2008-04-09 07:25:41 51°15.691 2°55.173 14.5962 0.209866 1.264869 -1.766697
2008-04-09 07:25:46 51°15.703 2°55.183 14.5966 0.209145 1.260248 -1.697049
2008-04-09 07:25:51 51°15.715 2°55.193 14.5966 0.208528 1.256427 -1.766697
2008-04-09 07:25:56 51°15.727 2°55.202 14.5967 0.20966 1.263733 -1.766697
2008-04-09 07:26:01 51°15.739 2°55.212 14.5975 0.209866 1.264869 -1.766697
2008-04-09 07:26:06 51°15.751 2°55.222 14.5976 0.20863 1.257153 -1.766697
2008-04-09 07:26:11 51°15.763 2°55.231 14.598 0.20863 1.257153 -1.766697
2008-04-09 07:26:16 51°15.775 2°55.241 14.5978 0.209248 1.261096 -1.766697
2008-04-09 07:26:21 51°15.787 2°55.251 14.5983 0.209351 1.261797 -1.766697
2008-04-09 07:26:26 51°15.799 2°55.26 14.5985 0.21141 1.274964 -1.766697
2008-04-09 07:26:31 51°15.811 2°55.27 14.5988 0.209557 1.26325 -1.766697
2008-04-09 07:26:36 51°15.823 2°55.279 14.5992 0.20966 1.263806 -1.766697
2008-04-09 07:26:41 51°15.836 2°55.289 14.5994 0.20966 1.263806 -1.766697
2008-04-09 07:26:46 51°15.848 2°55.299 14.5997 0.208939 1.259306 -1.766697
2008-04-09 07:26:51 51°15.86 2°55.308 14.6001 0.208836 1.258653 -1.766697
2008-04-09 07:26:56 51°15.872 2°55.318 14.6002 0.210483 1.268984 -1.766697
2008-04-09 07:27:01 51°15.884 2°55.327 14.6007 0.209557 1.263104 -1.766697
2008-04-09 07:27:06 51°15.896 2°55.337 14.6009 0.209557 1.263104 -1.766697
2008-04-09 07:27:11 51°15.908 2°55.346 14.6013 0.209557 1.263104 -1.766697
2008-04-09 07:27:16 51°15.921 2°55.355 14.6013 0.209454 1.262475 -1.766697
2008-04-09 07:27:21 51°15.933 2°55.364 14.6017 0.209248 1.261241 -1.766697
2008-04-09 07:27:26 51°15.945 2°55.374 14.6021 0.209969 1.265815 -1.766697
2008-04-09 07:27:31 51°15.957 2°55.383 14.6025 0.209351 1.261919 -1.766697
2008-04-09 07:27:36 51°15.969 2°55.392 14.6025 0.20966 1.264001 -1.766697
2008-04-09 07:27:41 51°15.981 2°55.402 14.6028 0.20966 1.264001 -1.766697
2008-04-09 07:27:46 51°15.994 2°55.411 14.6034 0.209248 1.261363 -1.766697
2008-04-09 07:27:51 51°16.006 2°55.42 14.6032 0.208836 1.258847 -1.766697
2008-04-09 07:27:56 51°16.018 2°55.429 14.6039 0.20966 1.264098 -1.766697
2008-04-09 07:28:01 51°16.03 2°55.439 14.6042 0.210072 1.266688 -1.766697
2008-04-09 07:28:06 51°16.043 2°55.448 14.6048 0.209351 1.262211 -1.766697
2008-04-09 07:28:11 51°16.055 2°55.457 14.6048 0.209351 1.262211 -1.766697
2008-04-09 07:28:16 51°16.067 2°55.466 14.6048 0.210072 1.266664 -1.766697
2008-04-09 07:28:21 51°16.079 2°55.475 14.605 0.209763 1.264703 -1.766697
2008-04-09 07:28:26 51°16.091 2°55.484 14.6054 0.209866 1.265405 -1.766697
2008-04-09 07:28:31 51°16.103 2°55.493 14.6061 0.209145 1.260856 -1.766697
2008-04-09 07:28:36 51°16.116 2°55.503 14.6059 0.210072 1.266761 -1.766697
2008-04-09 07:28:41 51°16.128 2°55.512 14.6065 0.210072 1.266761 -1.766697
2008-04-09 07:28:46 51°16.14 2°55.521 14.6067 0.20863 1.257565 -1.697049
2008-04-09 07:28:51 51°16.152 2°55.53 14.6073 0.208836 1.259139 -1.766697
2008-04-09 07:28:56 51°16.164 2°55.539 14.6074 0.210174 1.267537 -1.766697
2008-04-09 07:29:01 51°16.176 2°55.548 14.6078 0.20863 1.257807 -1.766697
2008-04-09 07:29:06 51°16.189 2°55.557 14.6075 0.211616 1.276715 -1.766697
2008-04-09 07:29:11 51°16.201 2°55.566 14.6083 0.211616 1.276715 -1.766697
2008-04-09 07:29:16 51°16.213 2°55.576 14.6085 0.20863 1.25839 -1.766697
2008-04-09 07:29:21 51°16.225 2°55.586 14.6084 0.211616 1.277282 -1.801521
2008-04-09 07:29:26 51°16.236 2°55.596 14.609 0.211718 1.277616 -1.731873
2008-04-09 07:29:31 51°16.248 2°55.605 14.6093 0.210689 1.271026 -1.766697
2008-04-09 07:29:36 51°16.26 2°55.615 14.6096 0.211513 1.276135 -1.766697
2008-04-09 07:29:41 51°16.272 2°55.625 14.61 0.211513 1.276135 -1.766697
2008-04-09 07:29:46 51°16.284 2°55.635 14.6103 0.210277 1.268338 -1.766697
2008-04-09 07:29:51 51°16.296 2°55.644 14.6104 0.21038 1.269016 -1.766697
2008-04-09 07:29:56 51°16.308 2°55.654 14.6109 0.210483 1.269768 -1.766697
2008-04-09 07:30:01 51°16.319 2°55.663 14.611 0.210586 1.270422 -1.766697
2008-04-09 07:30:06 51°16.331 2°55.673 14.6115 0.210174 1.267977 -1.766697
2008-04-09 07:30:11 51°16.343 2°55.682 14.6118 0.210174 1.267977 -1.766697
2008-04-09 07:30:16 51°16.355 2°55.692 14.612 0.210174 1.267929 -1.766697
2008-04-09 07:30:21 51°16.367 2°55.701 14.6124 0.20966 1.264659 -1.766697
2008-04-09 07:30:26 51°16.379 2°55.71 14.6126 0.210895 1.272408 -1.766697
2008-04-09 07:30:31 51°16.391 2°55.72 14.6131 0.209145 1.261342 -1.766697
2008-04-09 07:30:36 51°16.403 2°55.729 14.6133 0.210689 1.271149 -1.766697
2008-04-09 07:30:41 51°16.414 2°55.739 14.614 0.210689 1.271149 -1.766697
2008-04-09 07:30:46 51°16.426 2°55.748 14.6139 0.209454 1.263206 -1.662225
2008-04-09 07:30:51 51°16.438 2°55.758 14.6146 0.208733 1.258874 -1.766697
2008-04-09 07:30:56 51°16.45 2°55.767 14.6147 0.210277 1.268656 -1.766697
2008-04-09 07:31:01 51°16.462 2°55.776 14.6147 0.210689 1.271149 -1.766697
2008-04-09 07:31:06 51°16.474 2°55.786 14.6152 0.208836 1.259625 -1.766697
2008-04-09 07:31:11 51°16.486 2°55.795 14.6151 0.208836 1.259625 -1.766697
2008-04-09 07:31:16 51°16.497 2°55.805 14.6161 0.210483 1.269988 -1.766697
2008-04-09 07:31:21 51°16.509 2°55.814 14.6162 0.209557 1.26403 -1.766697
2008-04-09 07:31:26 51°16.521 2°55.823 14.6164 0.20966 1.264562 -1.731873
2008-04-09 07:31:31 51°16.533 2°55.832 14.6167 0.209248 1.262508 -1.766697
2008-04-09 07:31:36 51°16.545 2°55.843 14.6168 0.212645 1.283999 -1.731873
2008-04-09 07:31:41 51°16.556 2°55.853 14.6174 0.212645 1.283999 -1.731873
2008-04-09 07:31:46 51°16.568 2°55.863 14.6176 0.209248 1.262873 -1.766697
2008-04-09 07:31:51 51°16.579 2°55.874 14.6178 0.212336 1.282407 -1.766697
2008-04-09 07:31:56 51°16.59 2°55.884 14.6183 0.211101 1.274478 -1.766697
2008-04-09 07:32:01 51°16.602 2°55.895 14.6189 0.210586 1.271059 -1.766697
2008-04-09 07:32:06 51°16.613 2°55.906 14.6189 0.211616 1.277331 -1.731873
2008-04-09 07:32:11 51°16.625 2°55.916 14.6192 0.211616 1.277331 -1.731873
2008-04-09 07:32:16 51°16.636 2°55.927 14.6199 0.209557 1.264299 -1.766697
2008-04-09 07:32:21 51°16.647 2°55.937 14.6201 0.21038 1.269506 -1.766697
2008-04-09 07:32:26 51°16.659 2°55.948 14.6202 0.210072 1.267568 -1.766697
2008-04-09 07:32:31 51°16.67 2°55.958 14.6209 0.208425 1.25718 -1.731873
2008-04-09 07:32:36 51°16.682 2°55.969 14.6206 0.210689 1.271714 -1.766697
2008-04-09 07:32:41 51°16.693 2°55.979 14.6214 0.210689 1.271714 -1.766697
2008-04-09 07:32:46 51°16.704 2°55.989 14.6215 0.209763 1.265704 -1.627401
2008-04-09 07:32:51 51°16.716 2°56 14.6222 0.208528 1.258319 -1.801521
2008-04-09 07:32:56 51°16.727 2°56.01 14.6223 0.210792 1.272491 -1.766697
2008-04-09 07:33:01 51°16.739 2°56.021 14.6227 0.20966 1.26527 -1.766697
2008-04-09 07:33:06 51°16.75 2°56.032 14.623 0.209248 1.262629 -1.766697
2008-04-09 07:33:11 51°16.761 2°56.043 14.6235 0.209248 1.262629 -1.766697
2008-04-09 07:33:16 51°16.772 2°56.053 14.6239 0.20966 1.265123 -1.766697
2008-04-09 07:33:21 51°16.784 2°56.064 14.6239 0.209454 1.263693 -1.766697
2008-04-09 07:33:26 51°16.795 2°56.075 14.6245 0.208939 1.260376 -1.731873
2008-04-09 07:33:31 51°16.806 2°56.085 14.6248 0.208836 1.259892 -1.766697
2008-04-09 07:33:36 51°16.818 2°56.095 14.6252 0.20966 1.265294 -1.766697
2008-04-09 07:33:41 51°16.829 2°56.106 14.6253 0.20966 1.265294 -1.766697
2008-04-09 07:33:46 51°16.841 2°56.116 14.6259 0.210072 1.267886 -1.697049
2008-04-09 07:33:51 51°16.852 2°56.127 14.626 0.209454 1.264084 -1.766697
2008-04-09 07:33:56 51°16.863 2°56.137 14.6266 0.209454 1.264353 -1.801521
2008-04-09 07:34:01 51°16.875 2°56.148 14.627 0.209557 1.26486 -1.766697
2008-04-09 07:34:06 51°16.886 2°56.159 14.6273 0.209763 1.26612 -1.766697
2008-04-09 07:34:11 51°16.897 2°56.17 14.6272 0.209763 1.26612 -1.766697
2008-04-09 07:34:16 51°16.909 2°56.181 14.6278 0.208733 1.259481 -1.731873
2008-04-09 07:34:21 51°16.92 2°56.191 14.628 0.209042 1.261541 -1.766697
2008-04-09 07:34:26 51°16.932 2°56.202 14.6285 0.209557 1.264787 -1.731873
2008-04-09 07:34:31 51°16.943 2°56.212 14.6289 0.208528 1.258295 -1.766697
2008-04-09 07:34:36 51°16.955 2°56.223 14.6289 0.208836 1.260184 -1.766697
2008-04-09 07:34:41 51°16.966 2°56.233 14.629 0.208836 1.260184 -1.766697
2008-04-09 07:34:46 51°16.977 2°56.245 14.6296 0.208528 1.258563 -1.801521
2008-04-09 07:34:51 51°16.988 2°56.256 14.6299 0.210792 1.272958 -1.766697
2008-04-09 07:34:56 51°16.999 2°56.268 14.6301 0.208836 1.260768 -1.766697
2008-04-09 07:35:01 51°17.01 2°56.281 14.6302 0.210174 1.269006 -1.766697
2008-04-09 07:35:06 51°17.021 2°56.293 14.6309 0.208836 1.260598 -1.766697
2008-04-09 07:35:11 51°17.032 2°56.306 14.6312 0.208836 1.260598 -1.766697
2008-04-09 07:35:16 51°17.043 2°56.318 14.6315 0.210483 1.270847 -1.731873
2008-04-09 07:35:21 51°17.054 2°56.33 14.6318 0.208733 1.259895 -1.766697
2008-04-09 07:35:26 51°17.065 2°56.343 14.6321 0.210277 1.269538 -1.731873
2008-04-09 07:35:31 51°17.076 2°56.355 14.6325 0.208836 1.260306 -1.627401
2008-04-09 07:35:36 51°17.088 2°56.367 14.6326 0.208939 1.261252 -1.766697
2008-04-09 07:35:41 51°17.099 2°56.379 14.6334 0.208939 1.261252 -1.766697
2008-04-09 07:35:46 51°17.11 2°56.391 14.6333 0.20791 1.254517 -1.662225
2008-04-09 07:35:51 51°17.121 2°56.403 14.6339 0.209351 1.263942 -1.766697
2008-04-09 07:35:56 51°17.132 2°56.416 14.634 0.210998 1.274218 -1.662225
2008-04-09 07:36:01 51°17.144 2°56.428 14.6345 0.208322 1.257424 -1.766697
2008-04-09 07:36:06 51°17.155 2°56.441 14.6346 0.209763 1.266584 -1.766697
2008-04-09 07:36:11 51°17.165 2°56.454 14.6352 0.209763 1.266584 -1.766697
2008-04-09 07:36:16 51°17.176 2°56.467 14.6356 0.21038 1.27061 -1.766697
2008-04-09 07:36:21 51°17.187 2°56.48 14.6357 0.211204 1.275699 -1.766697
2008-04-09 07:36:26 51°17.198 2°56.493 14.6356 0.210277 1.269931 -1.801521
2008-04-09 07:36:31 51°17.209 2°56.505 14.6364 0.209557 1.265422 -1.766697
2008-04-09 07:36:36 51°17.219 2°56.519 14.6368 0.210998 1.274464 -1.731873
2008-04-09 07:36:41 51°17.23 2°56.531 14.6369 0.210998 1.274464 -1.731873
2008-04-09 07:36:46 51°17.241 2°56.544 14.6377 0.209248 1.26363 -1.801521
2008-04-09 07:36:51 51°17.252 2°56.556 14.6376 0.211616 1.27859 -1.766697
2008-04-09 07:36:56 51°17.263 2°56.569 14.6378 0.209351 1.264187 -1.766697
2008-04-09 07:37:01 51°17.275 2°56.582 14.6385 0.208939 1.261593 -1.766697
2008-04-09 07:37:06 51°17.286 2°56.594 14.6388 0.210483 1.271166 -1.697049
2008-04-09 07:37:11 51°17.297 2°56.606 14.6393 0.210483 1.271166 -1.697049
2008-04-09 07:37:16 51°17.308 2°56.618 14.6393 0.209454 1.264597 -1.766697
2008-04-09 07:37:21 51°17.32 2°56.63 14.64 0.20791 1.254978 -1.766697
2008-04-09 07:37:26 51°17.331 2°56.641 14.64 0.209866 1.267361 -1.766697
2008-04-09 07:37:31 51°17.343 2°56.652 14.6405 0.20791 1.254905 -1.662225
2008-04-09 07:37:36 51°17.355 2°56.664 14.6406 0.208836 1.261012 -1.801521
2008-04-09 07:37:41 51°17.366 2°56.675 14.6416 0.208836 1.261012 -1.801521
2008-04-09 07:37:46 51°17.378 2°56.685 14.6413 0.209248 1.263313 -1.627401
2008-04-09 07:37:51 51°17.389 2°56.697 14.6418 0.207292 1.251513 -1.766697
2008-04-09 07:37:56 51°17.401 2°56.707 14.6422 0.210277 1.270299 -1.731873
2008-04-09 07:38:01 51°17.413 2°56.718 14.6426 0.209145 1.263 -1.662225
2008-04-09 07:38:06 51°17.425 2°56.729 14.643 0.208116 1.256602 -1.766697
2008-04-09 07:38:11 51°17.436 2°56.74 14.6436 0.208116 1.256602 -1.766697
2008-04-09 07:38:16 51°17.448 2°56.751 14.6438 0.208939 1.261667 -1.766697
2008-04-09 07:38:21 51°17.46 2°56.761 14.6439 0.208013 1.255729 -1.766697
2008-04-09 07:38:26 51°17.471 2°56.772 14.6441 0.209454 1.264841 -1.766697
2008-04-09 07:38:31 51°17.483 2°56.783 14.645 0.208116 1.256432 -1.697049
2008-04-09 07:38:36 51°17.495 2°56.793 14.6449 0.208322 1.257983 -1.766697
2008-04-09 07:38:41 51°17.507 2°56.804 14.6453 0.208322 1.257983 -1.766697
2008-04-09 07:38:46 51°17.518 2°56.815 14.6459 0.210175 1.269865 -1.766697
2008-04-09 07:38:51 51°17.53 2°56.826 14.6464 0.208733 1.260699 -1.731873
2008-04-09 07:38:56 51°17.542 2°56.837 14.6463 0.208631 1.260142 -1.766697
2008-04-09 07:39:01 51°17.553 2°56.847 14.6464 0.208836 1.261329 -1.766697
2008-04-09 07:39:06 51°17.565 2°56.858 14.6472 0.208528 1.259463 -1.766697
2008-04-09 07:39:11 51°17.577 2°56.868 14.6475 0.208528 1.259463 -1.766697
2008-04-09 07:39:16 51°17.588 2°56.879 14.6478 0.209248 1.26385 -1.731873
2008-04-09 07:39:21 51°17.6 2°56.89 14.6481 0.208528 1.259438 -1.766697
2008-04-09 07:39:26 51°17.611 2°56.901 14.6483 0.208631 1.259898 -1.766697
2008-04-09 07:39:31 51°17.623 2°56.911 14.6487 0.208939 1.261984 -1.766697
2008-04-09 07:39:36 51°17.634 2°56.922 14.649 0.210175 1.269816 -1.731873
2008-04-09 07:39:41 51°17.646 2°56.933 14.6497 0.210175 1.269816 -1.731873
2008-04-09 07:39:46 51°17.657 2°56.944 14.6501 0.207498 1.252967 -1.731873
2008-04-09 07:39:51 51°17.668 2°56.955 14.6502 0.209866 1.267974 -1.766697
2008-04-09 07:39:56 51°17.68 2°56.966 14.651 0.208219 1.257597 -1.766697
2008-04-09 07:40:01 51°17.691 2°56.977 14.6511 0.208939 1.262106 -1.766697
2008-04-09 07:40:06 51°17.703 2°56.987 14.6515 0.208528 1.259512 -1.766697
2008-04-09 07:40:11 51°17.715 2°56.998 14.6518 0.208528 1.259512 -1.766697
2008-04-09 07:40:16 51°17.726 2°57.008 14.6521 0.209145 1.263513 -1.766697
2008-04-09 07:40:21 51°17.737 2°57.018 14.6526 0.209969 1.268923 -1.766697
2008-04-09 07:40:26 51°17.747 2°57.027 14.6527 0.209042 1.263224 -1.766697
2008-04-09 07:40:31 51°17.756 2°57.035 14.6533 0.20966 1.267449 -1.801521
2008-04-09 07:40:36 51°17.765 2°57.043 14.6536 0.211204 1.277131 -1.766697
2008-04-09 07:40:41 51°17.772 2°57.05 14.6542 0.211204 1.277131 -1.766697
2008-04-09 07:40:46 51°17.78 2°57.057 14.6541 0.209763 1.267932 -1.766697
2008-04-09 07:40:51 51°17.786 2°57.063 14.655 0.20966 1.267424 -1.801521
2008-04-09 07:40:56 51°17.792 2°57.069 14.6554 0.210175 1.270725 -1.766697
2008-04-09 07:41:01 51°17.798 2°57.074 14.6555 0.211821 1.281089 -1.801521
2008-04-09 07:41:06 51°17.803 2°57.079 14.656 0.210689 1.273953 -1.766697
2008-04-09 07:41:11 51°17.809 2°57.084 14.6561 0.210689 1.273953 -1.766697
2008-04-09 07:41:16 51°17.814 2°57.088 14.657 0.212233 1.283861 -1.801521
2008-04-09 07:41:21 51°17.818 2°57.093 14.6572 0.21141 1.27859 -1.766697
2008-04-09 07:41:26 51°17.822 2°57.097 14.6579 0.210483 1.273036 -1.766697
2008-04-09 07:41:31 51°17.826 2°57.101 14.6577 0.213674 1.293194 -1.766697
2008-04-09 07:41:36 51°17.83 2°57.105 14.6591 0.21038 1.272454 -1.801521
2008-04-09 07:41:41 51°17.833 2°57.108 14.6586 0.21038 1.272454 -1.801521
2008-04-09 07:41:46 51°17.837 2°57.111 14.6597 0.213983 1.295588 -1.766697
2008-04-09 07:41:51 51°17.84 2°57.115 14.6595 0.212027 1.282922 -1.731873
2008-04-09 07:41:56 51°17.843 2°57.117 14.6602 0.210895 1.276128 -1.731873
2008-04-09 07:42:01 51°17.846 2°57.12 14.6601 0.216042 1.308569 -1.766697
2008-04-09 07:42:06 51°17.849 2°57.123 14.661 0.211101 1.277044 -1.766697
2008-04-09 07:42:11 51°17.852 2°57.126 14.6609 0.211101 1.277044 -1.766697
2008-04-09 07:42:16 51°17.855 2°57.129 14.6618 0.21388 1.294581 -1.801521
2008-04-09 07:42:21 51°17.858 2°57.132 14.6617 0.214395 1.297435 -1.766697
2008-04-09 07:42:26 51°17.862 2°57.135 14.6625 0.21213 1.283329 -1.731873
2008-04-09 07:42:31 51°17.865 2°57.138 14.6627 0.21388 1.294531 -1.766697
2008-04-09 07:42:36 51°17.868 2°57.141 14.6634 0.212336 1.284815 -1.766697
2008-04-09 07:42:41 51°17.872 2°57.143 14.6641 0.212336 1.284815 -1.766697
2008-04-09 07:42:46 51°17.875 2°57.145 14.6646 0.21316 1.290313 -1.801521
2008-04-09 07:42:51 51°17.879 2°57.148 14.6646 0.212954 1.28915 -1.766697
2008-04-09 07:42:56 51°17.883 2°57.15 14.6653 0.213468 1.292757 -1.766697
2008-04-09 07:43:01 51°17.887 2°57.153 14.6656 0.212542 1.287149 -1.766697
2008-04-09 07:43:06 51°17.892 2°57.156 14.6656 0.213674 1.294572 -1.766697
2008-04-09 07:43:11 51°17.896 2°57.159 14.6667 0.213674 1.294572 -1.766697
2008-04-09 07:43:16 51°17.9 2°57.162 14.6665 0.211719 1.28222 -1.766697
2008-04-09 07:43:21 51°17.905 2°57.165 14.6673 0.212954 1.2906 -1.766697
2008-04-09 07:43:26 51°17.909 2°57.168 14.6677 0.214292 1.29869 -1.766697
2008-04-09 07:43:31 51°17.914 2°57.171 14.6684 0.211924 1.283732 -1.766697
2008-04-09 07:43:36 51°17.919 2°57.174 14.6685 0.215115 1.303745 -1.801521
2008-04-09 07:43:41 51°17.924 2°57.177 14.6691 0.215115 1.303745 -1.801521
2008-04-09 07:43:46 51°17.929 2°57.181 14.669 0.212336 1.285811 -1.766697
2008-04-09 07:43:51 51°17.934 2°57.184 14.6701 0.213777 1.295254 -1.766697
2008-04-09 07:43:56 51°17.939 2°57.188 14.6701 0.214498 1.299576 -1.766697
2008-04-09 07:44:01 51°17.944 2°57.191 14.6711 0.21213 1.284722 -1.801521
2008-04-09 07:44:06 51°17.949 2°57.194 14.671 0.215836 1.308092 -1.766697
2008-04-09 07:44:11 51°17.954 2°57.197 14.6715 0.215836 1.308092 -1.766697
2008-04-09 07:44:16 51°17.959 2°57.201 14.6716 0.212336 1.285985 -1.766697
2008-04-09 07:44:21 51°17.964 2°57.205 14.6727 0.213983 1.29687 -1.766697
2008-04-09 07:44:26 51°17.969 2°57.209 14.6728 0.215012 1.303265 -1.801521
2008-04-09 07:44:31 51°17.974 2°57.213 14.6736 0.213777 1.295606 -1.766697
2008-04-09 07:44:36 51°17.979 2°57.218 14.6736 0.21563 1.307107 -1.766697
2008-04-09 07:44:41 51°17.984 2°57.223 14.6741 0.21563 1.307107 -1.766697
2008-04-09 07:44:46 51°17.989 2°57.23 14.6743 0.213366 1.292677 -1.766697
2008-04-09 07:44:51 51°17.994 2°57.237 14.6746 0.215321 1.305413 -1.801521
2008-04-09 07:44:56 51°17.999 2°57.245 14.6752 0.21491 1.303189 -1.766697
2008-04-09 07:45:01 51°18.005 2°57.253 14.6758 0.216556 1.314042 -1.766697
2008-04-09 07:45:06 51°18.01 2°57.262 14.6762 0.21563 1.307715 -1.766697
2008-04-09 07:45:11 51°18.017 2°57.27 14.6768 0.21563 1.307715 -1.766697
2008-04-09 07:45:16 51°18.023 2°57.279 14.6775 0.214086 1.298131 -1.766697
2008-04-09 07:45:21 51°18.03 2°57.287 14.6778 0.214704 1.30152 -1.766697
2008-04-09 07:45:26 51°18.037 2°57.294 14.6787 0.212233 1.286002 -1.766697
2008-04-09 07:45:31 51°18.045 2°57.301 14.679 0.213468 1.29376 -1.766697
2008-04-09 07:45:36 51°18.053 2°57.307 14.6796 0.211307 1.279594 -1.731873
2008-04-09 07:45:41 51°18.062 2°57.313 14.6796 0.211307 1.279594 -1.731873
2008-04-09 07:45:46 51°18.07 2°57.317 14.6807 0.209969 1.270915 -1.766697
2008-04-09 07:45:51 51°18.08 2°57.322 14.6809 0.21038 1.272947 -1.627401
2008-04-09 07:45:56 51°18.089 2°57.326 14.6807 0.210483 1.273875 -1.766697
2008-04-09 07:46:01 51°18.097 2°57.332 14.6807 0.213777 1.296687 -1.801521
2008-04-09 07:46:06 51°18.104 2°57.34 14.6813 0.215321 1.307442 -1.766697
2008-04-09 07:46:11 51°18.109 2°57.349 14.6815 0.215321 1.307442 -1.766697
2008-04-09 07:46:16 51°18.113 2°57.36 14.6819 0.215939 1.312847 -1.557753
2008-04-09 07:46:21 51°18.117 2°57.371 14.6826 0.221086 1.345443 -1.766697
2008-04-09 07:46:26 51°18.12 2°57.383 14.6832 0.219542 1.335856 -1.766697
2008-04-09 07:46:31 51°18.123 2°57.395 14.6837 0.220468 1.341092 -1.766697
2008-04-09 07:46:36 51°18.125 2°57.405 14.6844 0.219953 1.336987 -1.801521
2008-04-09 07:46:41 51°18.128 2°57.416 14.6849 0.219953 1.336987 -1.801521
2008-04-09 07:46:46 51°18.129 2°57.425 14.6853 0.219542 1.334246 -1.766697
2008-04-09 07:46:51 51°18.13 2°57.433 14.6859 0.219336 1.332902 -1.766697
2008-04-09 07:46:56 51°18.131 2°57.441 14.6865 0.218718 1.329181 -1.801521
2008-04-09 07:47:01 51°18.132 2°57.447 14.6863 0.218924 1.330473 -1.766697
2008-04-09 07:47:06 51°18.131 2°57.453 14.6874 0.217483 1.321684 -1.766697
2008-04-09 07:47:11 51°18.131 2°57.459 14.6877 0.217483 1.321684 -1.766697
2008-04-09 07:47:16 51°18.13 2°57.463 14.6879 0.219645 1.335632 -1.766697
2008-04-09 07:47:21 51°18.129 2°57.466 14.6887 0.219336 1.333706 -1.766697
2008-04-09 07:47:26 51°18.127 2°57.469 14.6887 0.218512 1.328327 -1.801521
2008-04-09 07:47:31 51°18.125 2°57.471 14.6894 0.218512 1.32843 -1.801521
2008-04-09 07:47:36 51°18.123 2°57.471 14.69 0.218512 1.328327 -1.801521
2008-04-09 07:47:41 51°18.121 2°57.472 14.6906 0.218512 1.328327 -1.801521
2008-04-09 07:47:46 51°18.12 2°57.471 14.6911 0.218101 1.325819 -1.766697
2008-04-09 07:47:51 51°18.118 2°57.47 14.6912 0.21913 1.331895 -1.766697
2008-04-09 07:47:56 51°18.116 2°57.469 14.692 0.217483 1.321556 -1.766697
2008-04-09 07:48:01 51°18.114 2°57.468 14.6925 0.21913 1.332024 -1.766697
2008-04-09 07:48:06 51°18.112 2°57.466 14.6931 0.217895 1.324063 -1.801521
2008-04-09 07:48:11 51°18.11 2°57.465 14.6932 0.217895 1.324063 -1.801521
2008-04-09 07:48:16 51°18.107 2°57.463 14.694 0.218306 1.326725 -1.766697
2008-04-09 07:48:21 51°18.105 2°57.461 14.6944 0.217483 1.321324 -1.766697
2008-04-09 07:48:26 51°18.103 2°57.459 14.6952 0.21738 1.320743 -1.801521
2008-04-09 07:48:31 51°18.101 2°57.458 14.6954 0.218306 1.326725 -1.766697
2008-04-09 07:48:36 51°18.099 2°57.456 14.696 0.217174 1.319348 -1.766697
2008-04-09 07:48:41 51°18.096 2°57.453 14.6964 0.217174 1.319348 -1.766697
2008-04-09 07:48:46 51°18.094 2°57.451 14.697 0.216865 1.317576 -1.766697
2008-04-09 07:48:51 51°18.092 2°57.449 14.6976 0.218203 1.325885 -1.766697
2008-04-09 07:48:56 51°18.09 2°57.447 14.6982 0.215836 1.311142 -1.766697
2008-04-09 07:49:01 51°18.088 2°57.444 14.6986 0.218101 1.325458 -1.766697
2008-04-09 07:49:06 51°18.085 2°57.442 14.6992 0.215218 1.306987 -1.766697
2008-04-09 07:49:11 51°18.083 2°57.44 14.6996 0.215218 1.306987 -1.766697
2008-04-09 07:49:16 51°18.081 2°57.437 14.7006 0.216659 1.316336 -1.766697
2008-04-09 07:49:21 51°18.079 2°57.435 14.7007 0.216042 1.312 -1.766697
2008-04-09 07:49:26 51°18.077 2°57.432 14.7014 0.215939 1.311495 -1.766697
2008-04-09 07:49:31 51°18.075 2°57.429 14.7019 0.215527 1.308683 -1.801521
2008-04-09 07:49:36 51°18.072 2°57.427 14.7026 0.216145 1.312838 -1.766697
2008-04-09 07:49:41 51°18.07 2°57.424 14.7028 0.216145 1.312838 -1.766697
2008-04-09 07:49:46 51°18.068 2°57.422 14.7035 0.216042 1.312051 -1.766697
2008-04-09 07:49:51 51°18.066 2°57.419 14.7041 0.215115 1.306278 -1.801521
2008-04-09 07:49:56 51°18.064 2°57.416 14.7047 0.215836 1.310938 -1.766697
2008-04-09 07:50:01 51°18.062 2°57.413 14.7052 0.215115 1.306557 -1.801521
2008-04-09 07:50:06 51°18.06 2°57.411 14.7057 0.215939 1.312005 -1.766697
2008-04-09 07:50:11 51°18.058 2°57.408 14.7064 0.215939 1.312005 -1.766697
2008-04-09 07:50:16 51°18.056 2°57.405 14.7067 0.215321 1.308027 -1.766697
2008-04-09 07:50:21 51°18.054 2°57.402 14.7077 0.215321 1.308307 -1.766697
2008-04-09 07:50:26 51°18.051 2°57.399 14.7083 0.216865 1.317935 -1.766697
2008-04-09 07:50:31 51°18.049 2°57.396 14.7085 0.215013 1.306229 -1.766697
2008-04-09 07:50:36 51°18.048 2°57.394 14.709 0.216351 1.314691 -1.766697
2008-04-09 07:50:41 51°18.045 2°57.391 14.7098 0.216351 1.314691 -1.766697
2008-04-09 07:50:46 51°18.043 2°57.388 14.7105 0.215321 1.307951 -1.766697
2008-04-09 07:50:51 51°18.042 2°57.384 14.7112 0.215424 1.308686 -1.766697
2008-04-09 07:50:56 51°18.04 2°57.381 14.7113 0.216145 1.313093 -1.766697
2008-04-09 07:51:01 51°18.038 2°57.378 14.7122 0.215013 1.306 -1.766697
2008-04-09 07:51:06 51°18.036 2°57.375 14.7124 0.216042 1.312409 -1.766697
2008-04-09 07:51:11 51°18.034 2°57.372 14.7134 0.216042 1.312409 -1.766697
2008-04-09 07:51:16 51°18.032 2°57.369 14.7137 0.214292 1.301365 -1.766697
2008-04-09 07:51:21 51°18.03 2°57.366 14.7142 0.215424 1.308711 -1.766697
2008-04-09 07:51:26 51°18.028 2°57.363 14.7149 0.214498 1.302733 -1.766697
2008-04-09 07:51:31 51°18.026 2°57.36 14.7154 0.215733 1.310738 -1.801521
2008-04-09 07:51:36 51°18.025 2°57.357 14.7161 0.215218 1.307267 -1.766697
2008-04-09 07:51:41 51°18.023 2°57.354 14.7161 0.215218 1.307267 -1.766697
2008-04-09 07:51:46 51°18.021 2°57.351 14.7169 0.21388 1.29911 -1.766697
2008-04-09 07:51:51 51°18.019 2°57.348 14.7173 0.215939 1.312158 -1.766697
2008-04-09 07:51:56 51°18.017 2°57.345 14.7179 0.213674 1.297793 -1.766697
2008-04-09 07:52:01 51°18.016 2°57.342 14.7185 0.215836 1.31178 -1.801521
2008-04-09 07:52:06 51°18.014 2°57.339 14.719 0.215013 1.306178 -1.766697
2008-04-09 07:52:11 51°18.012 2°57.336 14.7196 0.215013 1.306178 -1.766697
2008-04-09 07:52:16 51°18.01 2°57.332 14.72 0.214601 1.303974 -1.766697
2008-04-09 07:52:21 51°18.009 2°57.329 14.7203 0.217277 1.32088 -1.766697
2008-04-09 07:52:26 51°18.007 2°57.326 14.7208 0.214292 1.301897 -1.766697
2008-04-09 07:52:31 51°18.005 2°57.323 14.7216 0.215836 1.31178 -1.766697
2008-04-09 07:52:36 51°18.003 2°57.32 14.7219 0.215527 1.309548 -1.801521
2008-04-09 07:52:41 51°18.002 2°57.317 14.7221 0.215527 1.309548 -1.801521
2008-04-09 07:52:46 51°18 2°57.313 14.7226 0.214498 1.303265 -1.766697
2008-04-09 07:52:51 51°17.998 2°57.31 14.7233 0.215939 1.312413 -1.766697
2008-04-09 07:52:56 51°17.997 2°57.307 14.7238 0.214498 1.303062 -1.766697
2008-04-09 07:53:01 51°17.995 2°57.303 14.7245 0.214395 1.302606 -1.766697
2008-04-09 07:53:06 51°17.993 2°57.3 14.7247 0.215836 1.311754 -1.766697
2008-04-09 07:53:11 51°17.992 2°57.297 14.7255 0.215836 1.311754 -1.766697
2008-04-09 07:53:16 51°17.99 2°57.293 14.7257 0.213469 1.296729 -1.766697
2008-04-09 07:53:21 51°17.988 2°57.29 14.726 0.214498 1.303518 -1.766697
2008-04-09 07:53:26 51°17.987 2°57.287 14.7267 0.214086 1.300706 -1.766697
2008-04-09 07:53:31 51°17.985 2°57.284 14.7275 0.212851 1.292954 -1.766697
2008-04-09 07:53:36 51°17.983 2°57.28 14.7275 0.214395 1.30253 -1.766697
2008-04-09 07:53:41 51°17.982 2°57.277 14.7284 0.214395 1.30253 -1.766697
2008-04-09 07:53:46 51°17.98 2°57.273 14.7283 0.211822 1.285894 -1.731873
2008-04-09 07:53:51 51°17.979 2°57.27 14.7288 0.211719 1.285486 -1.766697
2008-04-09 07:53:56 51°17.977 2°57.266 14.7294 0.212542 1.290426 -1.766697
2008-04-09 07:54:01 51°17.975 2°57.263 14.7303 0.210175 1.275516 -1.766697
2008-04-09 07:54:06 51°17.974 2°57.259 14.7301 0.212336 1.289235 -1.766697
2008-04-09 07:54:11 51°17.972 2°57.256 14.7308 0.212336 1.289235 -1.766697
2008-04-09 07:54:16 51°17.97 2°57.252 14.7308 0.210483 1.277316 -1.766697
2008-04-09 07:54:21 51°17.969 2°57.249 14.7319 0.21038 1.276832 -1.766697
2008-04-09 07:54:26 51°17.967 2°57.246 14.7322 0.210998 1.280456 -1.766697
2008-04-09 07:54:31 51°17.966 2°57.243 14.7326 0.209557 1.271496 -1.766697
2008-04-09 07:54:36 51°17.964 2°57.239 14.7326 0.210689 1.278656 -1.766697
2008-04-09 07:54:41 51°17.962 2°57.236 14.7334 0.210689 1.278656 -1.766697
2008-04-09 07:54:46 51°17.96 2°57.234 14.7337 0.210072 1.274784 -1.766697
2008-04-09 07:54:51 51°17.958 2°57.231 14.7341 0.210895 1.279997 -1.766697
2008-04-09 07:54:57 51°17.955 2°57.228 14.7343 0.21038 1.276857 -1.766697
2008-04-09 07:55:01 51°17.954 2°57.227 14.7348 0.210278 1.276348 -1.766697
2008-04-09 07:55:06 51°17.951 2°57.225 14.7354 0.210072 1.275156 -1.801521
2008-04-09 07:55:11 51°17.948 2°57.225 14.7355 0.210072 1.275156 -1.801521
2008-04-09 07:55:16 51°17.946 2°57.226 14.7357 0.210483 1.277515 -1.766697
2008-04-09 07:55:21 51°17.943 2°57.228 14.7364 0.209866 1.273543 -1.766697
2008-04-09 07:55:26 51°17.941 2°57.231 14.7369 0.209866 1.273419 -1.697049
2008-04-09 07:55:31 51°17.939 2°57.235 14.7374 0.209454 1.27064 -1.662225
2008-04-09 07:55:36 51°17.939 2°57.239 14.7377 0.207087 1.255572 -1.697049
2008-04-09 07:55:41 51°17.938 2°57.244 14.7384 0.207087 1.255572 -1.697049
2008-04-09 07:55:46 51°17.939 2°57.249 14.739 0.208116 1.262045 -1.731873
2008-04-09 07:55:51 51°17.94 2°57.253 14.7386 0.206778 1.253284 -1.592577
2008-04-09 07:55:56 51°17.942 2°57.256 14.7392 0.206572 1.251971 -1.697049
2008-04-09 07:56:01 51°17.944 2°57.259 14.7396 0.206778 1.253187 -1.627401
2008-04-09 07:56:06 51°17.946 2°57.261 14.7399 0.205131 1.242947 -1.731873
2008-04-09 07:56:11 51°17.949 2°57.264 14.7401 0.205131 1.242947 -1.731873
2008-04-09 07:56:16 51°17.951 2°57.266 14.7403 0.206984 1.25472 -1.697049
2008-04-09 07:56:21 51°17.953 2°57.268 14.7406 0.205851 1.247422 -1.627401
2008-04-09 07:56:26 51°17.956 2°57.271 14.7403 0.206778 1.253357 -1.766697
2008-04-09 07:56:31 51°17.959 2°57.275 14.7405 0.207395 1.257641 -1.766697
2008-04-09 07:56:36 51°17.961 2°57.279 14.7409 0.208939 1.268191 -1.766697
2008-04-09 07:56:41 51°17.963 2°57.284 14.7409 0.208939 1.268191 -1.766697
2008-04-09 07:56:46 51°17.964 2°57.289 14.7414 0.210072 1.275578 -1.766697
2008-04-09 07:56:51 51°17.966 2°57.295 14.7418 0.209969 1.27559 -1.766697
2008-04-09 07:56:56 51°17.967 2°57.302 14.7421 0.212336 1.290816 -1.766697
2008-04-09 07:57:01 51°17.969 2°57.309 14.7425 0.210483 1.279007 -1.766697
2008-04-09 07:57:06 51°17.97 2°57.315 14.743 0.211101 1.283034 -1.801521
2008-04-09 07:57:11 51°17.971 2°57.322 14.7433 0.211101 1.283034 -1.801521
2008-04-09 07:57:16 51°17.972 2°57.329 14.7437 0.21141 1.284711 -1.766697
2008-04-09 07:57:21 51°17.972 2°57.335 14.7438 0.209557 1.272857 -1.766697
2008-04-09 07:57:26 51°17.973 2°57.341 14.7435 0.212336 1.290439 -1.766697
2008-04-09 07:57:31 51°17.972 2°57.347 14.7446 0.210689 1.279876 -1.766697
2008-04-09 07:57:36 51°17.972 2°57.353 14.7447 0.211204 1.283393 -1.766697
2008-04-09 07:57:41 51°17.972 2°57.358 14.7449 0.211204 1.283393 -1.766697
2008-04-09 07:57:46 51°17.971 2°57.363 14.7453 0.212954 1.294342 -1.766697
2008-04-09 07:57:51 51°17.97 2°57.368 14.7456 0.210381 1.278772 -1.766697
2008-04-09 07:57:56 51°17.969 2°57.373 14.7457 0.213571 1.298878 -1.766697
2008-04-09 07:58:02 51°17.968 2°57.379 14.7462 0.210792 1.281158 -1.766697
2008-04-09 07:58:06 51°17.967 2°57.384 14.7465 0.212439 1.291626 -1.801521
2008-04-09 07:58:11 51°17.966 2°57.389 14.7471 0.212439 1.291626 -1.801521
2008-04-09 07:58:16 51°17.964 2°57.394 14.747 0.211513 1.28537 -1.766697
2008-04-09 07:58:21 51°17.963 2°57.4 14.7475 0.211513 1.285269 -1.766697
2008-04-09 07:58:26 51°17.961 2°57.406 14.7476 0.210792 1.280659 -1.766697
2008-04-09 07:58:31 51°17.96 2°57.412 14.7481 0.210998 1.282201 -1.766697
2008-04-09 07:58:36 51°17.959 2°57.418 14.7485 0.210381 1.277975 -1.731873
2008-04-09 07:58:41 51°17.958 2°57.425 14.7486 0.210381 1.277975 -1.731873
2008-04-09 07:58:46 51°17.956 2°57.431 14.749 0.210278 1.277914 -1.766697
2008-04-09 07:58:51 51°17.955 2°57.438 14.7492 0.212645 1.292743 -1.731873
2008-04-09 07:58:56 51°17.954 2°57.444 14.75 0.209454 1.272917 -1.766697
2008-04-09 07:59:01 51°17.952 2°57.451 14.7498 0.213469 1.298193 -1.766697
2008-04-09 07:59:06 51°17.951 2°57.458 14.7506 0.209557 1.273378 -1.766697
2008-04-09 07:59:11 51°17.95 2°57.465 14.7505 0.209557 1.273378 -1.766697
2008-04-09 07:59:16 51°17.949 2°57.471 14.751 0.211719 1.287038 -1.766697
2008-04-09 07:59:21 51°17.947 2°57.478 14.7514 0.210792 1.280759 -1.766697
2008-04-09 07:59:26 51°17.946 2°57.485 14.752 0.210483 1.278907 -1.801521
2008-04-09 07:59:31 51°17.944 2°57.492 14.7518 0.212439 1.291149 -1.766697
2008-04-09 07:59:36 51°17.943 2°57.499 14.7523 0.209763 1.274347 -1.766697
2008-04-09 07:59:41 51°17.941 2°57.507 14.7525 0.209763 1.274347 -1.766697
2008-04-09 07:59:46 51°17.94 2°57.514 14.7532 0.212439 1.291526 -1.766697
2008-04-09 07:59:51 51°17.938 2°57.521 14.753 0.210689 1.280349 -1.766697
2008-04-09 07:59:56 51°17.937 2°57.528 14.7535 0.211204 1.283843 -1.801521
2008-04-09 08:00:01 51°17.935 2°57.535 14.7543 0.21141 1.285111 -1.766697
2008-04-09 08:00:06 51°17.933 2°57.542 14.7543 0.210278 1.278337 -1.766697
2008-04-09 08:00:11 51°17.932 2°57.549 14.7549 0.210278 1.278337 -1.766697
2008-04-09 08:00:16 51°17.931 2°57.556 14.7551 0.212336 1.291194 -1.766697
2008-04-09 08:00:21 51°17.93 2°57.563 14.7555 0.209454 1.272992 -1.766697
2008-04-09 08:00:26 51°17.929 2°57.57 14.7558 0.211204 1.283843 -1.766697
2008-04-09 08:00:31 51°17.928 2°57.577 14.7562 0.209351 1.271912 -1.766697
2008-04-09 08:00:36 51°17.928 2°57.584 14.7567 0.210895 1.281567 -1.766697
2008-04-09 08:00:41 51°17.928 2°57.591 14.7572 0.210895 1.281567 -1.766697
2008-04-09 08:00:46 51°17.928 2°57.598 14.7574 0.209557 1.272832 -1.662225
2008-04-09 08:00:51 51°17.928 2°57.605 14.7576 0.208939 1.269055 -1.766697
2008-04-09 08:00:56 51°17.928 2°57.611 14.7581 0.208734 1.267961 -1.801521
2008-04-09 08:01:01 51°17.928 2°57.618 14.7585 0.209454 1.272768 -1.801521
2008-04-09 08:01:06 51°17.928 2°57.624 14.7589 0.209042 1.269887 -1.662225
2008-04-09 08:01:11 51°17.929 2°57.63 14.7595 0.209042 1.269887 -1.662225
2008-04-09 08:01:16 51°17.931 2°57.636 14.7599 0.208734 1.26806 -1.766697
2008-04-09 08:01:21 51°17.932 2°57.642 14.7599 0.208939 1.268907 -1.627401
2008-04-09 08:01:26 51°17.934 2°57.648 14.7609 0.206984 1.256845 -1.697049
2008-04-09 08:01:31 51°17.936 2°57.653 14.7611 0.210586 1.279865 -1.731873
2008-04-09 08:01:36 51°17.938 2°57.659 14.7617 0.208425 1.265887 -1.662225
2008-04-09 08:01:41 51°17.94 2°57.664 14.762 0.208425 1.265887 -1.662225
2008-04-09 08:01:46 51°17.943 2°57.669 14.7622 0.207807 1.262233 -1.766697
2008-04-09 08:01:51 51°17.945 2°57.674 14.7627 0.211307 1.284452 -1.731873
2008-04-09 08:01:56 51°17.948 2°57.679 14.763 0.207807 1.262135 -1.766697
2008-04-09 08:02:01 51°17.951 2°57.684 14.7639 0.209557 1.273278 -1.766697
2008-04-09 08:02:06 51°17.954 2°57.689 14.7639 0.20966 1.273689 -1.731873
2008-04-09 08:02:11 51°17.956 2°57.694 14.7648 0.20966 1.273689 -1.731873
2008-04-09 08:02:16 51°17.958 2°57.7 14.7646 0.207293 1.258918 -1.766697
2008-04-09 08:02:21 51°17.961 2°57.705 14.7653 0.210792 1.281258 -1.801521
2008-04-09 08:02:26 51°17.964 2°57.711 14.7657 0.208631 1.267426 -1.766697
2008-04-09 08:02:31 51°17.966 2°57.716 14.7666 0.209763 1.275092 -1.766697
2008-04-09 08:02:36 51°17.969 2°57.722 14.7668 0.210483 1.27958 -1.766697
2008-04-09 08:02:41 51°17.972 2°57.727 14.7674 0.210483 1.27958 -1.766697
2008-04-09 08:02:46 51°17.974 2°57.733 14.7676 0.208837 1.269411 -1.766697
2008-04-09 08:02:51 51°17.977 2°57.738 14.7685 0.210998 1.283075 -1.766697
2008-04-09 08:02:56 51°17.979 2°57.744 14.7686 0.210072 1.276994 -1.766697
2008-04-09 08:03:01 51°17.982 2°57.75 14.7695 0.209248 1.271625 -1.766697
2008-04-09 08:03:06 51°17.984 2°57.755 14.7699 0.210072 1.27692 -1.766697
2008-04-09 08:03:11 51°17.987 2°57.761 14.7703 0.210072 1.27692 -1.766697
2008-04-09 08:03:16 51°17.99 2°57.766 14.7704 0.209557 1.27365 -1.766697
2008-04-09 08:03:21 51°17.992 2°57.772 14.7716 0.208939 1.270292 -1.766697
2008-04-09 08:03:26 51°17.995 2°57.778 14.7717 0.210689 1.281423 -1.766697
2008-04-09 08:03:31 51°17.997 2°57.783 14.7726 0.20791 1.263926 -1.731873
2008-04-09 08:03:36 51°18 2°57.789 14.773 0.209763 1.275938 -1.766697
2008-04-09 08:03:41 51°18.002 2°57.795 14.7737 0.209763 1.275938 -1.766697
2008-04-09 08:03:46 51°18.005 2°57.8 14.7741 0.209454 1.273587 -1.766697
2008-04-09 08:03:51 51°18.007 2°57.806 14.7748 0.208425 1.267492 -1.766697
2008-04-09 08:03:57 51°18.01 2°57.813 14.7751 0.211513 1.286923 -1.731873
2008-04-09 08:04:01 51°18.012 2°57.817 14.7758 0.209042 1.271075 -1.766697
2008-04-09 08:04:06 51°18.015 2°57.823 14.7762 0.209145 1.271933 -1.801521
2008-04-09 08:04:11 51°18.017 2°57.828 14.7766 0.209145 1.271933 -1.801521
2008-04-09 08:04:16 51°18.02 2°57.834 14.7776 0.210278 1.278811 -1.766697
2008-04-09 08:04:21 51°18.022 2°57.84 14.7781 0.208322 1.266438 -1.766697
2008-04-09 08:04:26 51°18.025 2°57.846 14.7786 0.209866 1.276149 -1.766697
2008-04-09 08:04:31 51°18.028 2°57.851 14.7793 0.208837 1.269559 -1.766697
2008-04-09 08:04:36 51°18.03 2°57.857 14.7797 0.210895 1.283041 -1.766697
2008-04-09 08:04:41 51°18.033 2°57.863 14.7809 0.210895 1.283041 -1.766697
2008-04-09 08:04:46 51°18.035 2°57.868 14.781 0.209454 1.273711 -1.662225
2008-04-09 08:04:51 51°18.038 2°57.874 14.7814 0.208425 1.267665 -1.766697
2008-04-09 08:04:56 51°18.041 2°57.88 14.7823 0.210586 1.281463 -1.766697
2008-04-09 08:05:01 51°18.043 2°57.885 14.7827 0.210278 1.279434 -1.766697
2008-04-09 08:05:06 51°18.046 2°57.891 14.7835 0.210278 1.27926 -1.766697
2008-04-09 08:05:11 51°18.048 2°57.897 14.7841 0.210278 1.27926 -1.766697
2008-04-09 08:05:16 51°18.051 2°57.903 14.7845 0.208528 1.268151 -1.801521
2008-04-09 08:05:21 51°18.054 2°57.908 14.7854 0.21213 1.290957 -1.766697
2008-04-09 08:05:26 51°18.056 2°57.914 14.7857 0.208013 1.264905 -1.697049
2008-04-09 08:05:31 51°18.059 2°57.919 14.7865 0.209145 1.272429 -1.801521
2008-04-09 08:05:36 51°18.062 2°57.925 14.7871 0.210278 1.279284 -1.662225
2008-04-09 08:05:41 51°18.064 2°57.931 14.7881 0.210278 1.279284 -1.662225
2008-04-09 08:05:46 51°18.067 2°57.937 14.7883 0.208219 1.266297 -1.766697
2008-04-09 08:05:51 51°18.07 2°57.942 14.7893 0.211719 1.288494 -1.731873
2008-04-09 08:05:56 51°18.072 2°57.948 14.7896 0.208219 1.266297 -1.766697
2008-04-09 08:06:01 51°18.075 2°57.954 14.7903 0.210792 1.282907 -1.766697
2008-04-09 08:06:06 51°18.078 2°57.96 14.7912 0.209557 1.274942 -1.731873
2008-04-09 08:06:11 51°18.081 2°57.965 14.7915 0.209557 1.274942 -1.731873
2008-04-09 08:06:16 51°18.083 2°57.971 14.7922 0.208528 1.268522 -1.766697
2008-04-09 08:06:21 51°18.086 2°57.977 14.7933 0.210792 1.282882 -1.766697
2008-04-09 08:06:26 51°18.088 2°57.983 14.7932 0.209248 1.27284 -1.731873
2008-04-09 08:06:31 51°18.091 2°57.988 14.7942 0.209866 1.27717 -1.766697
2008-04-09 08:06:37 51°18.094 2°57.995 14.7953 0.210072 1.27824 -1.731873
2008-04-09 08:06:41 51°18.096 2°58 14.7956 0.210072 1.27824 -1.731873
2008-04-09 08:06:46 51°18.099 2°58.006 14.7961 0.208528 1.268943 -1.766697
2008-04-09 08:06:51 51°18.101 2°58.011 14.797 0.211101 1.285137 -1.766697
2008-04-09 08:06:56 51°18.104 2°58.017 14.7976 0.208116 1.266379 -1.766697
2008-04-09 08:07:01 51°18.107 2°58.023 14.7984 0.210381 1.281043 -1.766697
2008-04-09 08:07:06 51°18.109 2°58.029 14.7992 0.210586 1.281963 -1.697049
2008-04-09 08:07:11 51°18.112 2°58.034 14.8 0.210586 1.281963 -1.697049
2008-04-09 08:07:17 51°18.115 2°58.041 14.8004 0.209557 1.27539 -1.766697
2008-04-09 08:07:22 51°18.118 2°58.047 14.8012 0.208734 1.269915 -1.766697
2008-04-09 08:07:26 51°18.12 2°58.052 14.8019 0.208013 1.265522 -1.801521
2008-04-09 08:07:31 51°18.122 2°58.057 14.8024 0.20966 1.275801 -1.766697
2008-04-09 08:07:36 51°18.125 2°58.063 14.8033 0.20791 1.264616 -1.766697
2008-04-09 08:07:41 51°18.127 2°58.069 14.8039 0.20791 1.264616 -1.766697
2008-04-09 08:07:46 51°18.13 2°58.074 14.805 0.209351 1.273797 -1.766697
2008-04-09 08:07:51 51°18.133 2°58.08 14.8055 0.207807 1.263834 -1.662225
2008-04-09 08:07:56 51°18.135 2°58.085 14.8065 0.207498 1.262275 -1.766697
2008-04-09 08:08:01 51°18.138 2°58.091 14.8068 0.209454 1.274556 -1.731873
2008-04-09 08:08:06 51°18.141 2°58.096 14.808 0.206984 1.259102 -1.766697
2008-04-09 08:08:11 51°18.143 2°58.102 14.8082 0.206984 1.259102 -1.766697
2008-04-09 08:08:16 51°18.146 2°58.108 14.8092 0.208734 1.270585 -1.766697
2008-04-09 08:08:22 51°18.149 2°58.115 14.8101 0.209042 1.272216 -1.697049
2008-04-09 08:08:26 51°18.151 2°58.119 14.8109 0.207087 1.259958 -1.766697
2008-04-09 08:08:31 51°18.153 2°58.125 14.8112 0.208116 1.266503 -1.766697
2008-04-09 08:08:36 51°18.156 2°58.13 14.8123 0.207498 1.262398 -1.766697
2008-04-09 08:08:41 51°18.158 2°58.136 14.813 0.207498 1.262398 -1.766697
2008-04-09 08:08:46 51°18.161 2°58.141 14.8141 0.208116 1.266355 -1.766697
2008-04-09 08:08:51 51°18.163 2°58.147 14.8146 0.206984 1.258905 -1.697049
2008-04-09 08:08:56 51°18.166 2°58.152 14.8155 0.207807 1.264401 -1.801521
2008-04-09 08:09:01 51°18.168 2°58.158 14.8158 0.208631 1.269281 -1.662225
2008-04-09 08:09:06 51°18.171 2°58.163 14.8173 0.206469 1.255953 -1.766697
2008-04-09 08:09:11 51°18.174 2°58.169 14.8174 0.206469 1.255953 -1.766697
2008-04-09 08:09:16 51°18.176 2°58.174 14.8188 0.20966 1.276249 -1.766697
2008-04-09 08:09:22 51°18.179 2°58.181 14.8192 0.206572 1.256661 -1.731873
2008-04-09 08:09:26 51°18.181 2°58.185 14.8199 0.208219 1.267435 -1.766697
2008-04-09 08:09:31 51°18.184 2°58.191 14.8214 0.208528 1.269067 -1.697049
2008-04-09 08:09:36 51°18.187 2°58.196 14.8221 0.207087 1.260154 -1.766697
2008-04-09 08:09:41 51°18.189 2°58.202 14.8223 0.207087 1.260154 -1.766697
2008-04-09 08:09:46 51°18.192 2°58.207 14.8234 0.208734 1.270485 -1.766697
2008-04-09 08:09:51 51°18.194 2°58.213 14.8242 0.206984 1.2592 -1.731873
2008-04-09 08:09:57 51°18.197 2°58.219 14.8252 0.207396 1.261936 -1.766697
2008-04-09 08:10:02 51°18.2 2°58.225 14.826 0.207807 1.2645 -1.766697
2008-04-09 08:10:06 51°18.202 2°58.229 14.8266 0.207293 1.261301 -1.766697
2008-04-09 08:10:11 51°18.204 2°58.235 14.8275 0.207293 1.261301 -1.766697
2008-04-09 08:10:16 51°18.207 2°58.24 14.8285 0.207396 1.262232 -1.766697
2008-04-09 08:10:21 51°18.209 2°58.245 14.8291 0.208322 1.268119 -1.766697
2008-04-09 08:10:26 51°18.212 2°58.251 14.8299 0.206469 1.256468 -1.766697
2008-04-09 08:10:31 51°18.215 2°58.256 14.831 0.209763 1.277508 -1.731873
2008-04-09 08:10:36 51°18.217 2°58.262 14.8319 0.207087 1.260376 -1.662225
2008-04-09 08:10:41 51°18.22 2°58.267 14.8328 0.207087 1.260376 -1.662225
2008-04-09 08:10:46 51°18.222 2°58.272 14.8335 0.206469 1.256861 -1.766697
2008-04-09 08:10:51 51°18.225 2°58.278 14.8344 0.210072 1.279488 -1.662225
2008-04-09 08:10:57 51°18.228 2°58.284 14.8354 0.205646 1.251413 -1.731873
2008-04-09 08:11:01 51°18.23 2°58.288 14.8361 0.20894 1.272426 -1.766697
2008-04-09 08:11:06 51°18.232 2°58.294 14.8372 0.208528 1.269414 -1.627401
2008-04-09 08:11:11 51°18.235 2°58.299 14.8382 0.208528 1.269414 -1.627401
2008-04-09 08:11:16 51°18.237 2°58.305 14.8391 0.206263 1.255198 -1.766697
2008-04-09 08:11:21 51°18.24 2°58.31 14.8398 0.208631 1.270024 -1.766697
2008-04-09 08:11:26 51°18.242 2°58.315 14.8405 0.206366 1.255441 -1.731873
2008-04-09 08:11:31 51°18.245 2°58.32 14.8414 0.20894 1.271879 -1.766697
2008-04-09 08:11:36 51°18.247 2°58.326 14.8426 0.207498 1.262497 -1.627401
2008-04-09 08:11:42 51°18.25 2°58.332 14.8436 0.207498 1.262497 -1.627401
2008-04-09 08:11:46 51°18.252 2°58.337 14.8442 0.206469 1.256443 -1.766697
2008-04-09 08:11:51 51°18.255 2°58.342 14.845 0.210175 1.280073 -1.697049
2008-04-09 08:11:56 51°18.257 2°58.347 14.8462 0.206469 1.256713 -1.731873
2008-04-09 08:12:01 51°18.26 2°58.352 14.847 0.208322 1.268664 -1.766697
2008-04-09 08:12:06 51°18.262 2°58.358 14.8479 0.20791 1.26595 -1.731873
2008-04-09 08:12:11 51°18.265 2°58.363 14.8488 0.20791 1.26595 -1.731873
2008-04-09 08:12:16 51°18.267 2°58.368 14.8494 0.206263 1.255738 -1.766697
2008-04-09 08:12:21 51°18.27 2°58.373 14.8506 0.208631 1.271092 -1.766697
2008-04-09 08:12:26 51°18.272 2°58.379 14.8514 0.207807 1.265612 -1.627401
2008-04-09 08:12:31 51°18.275 2°58.384 14.8525 0.206572 1.258184 -1.766697
2008-04-09 08:12:36 51°18.278 2°58.389 14.8533 0.208322 1.269086 -1.731873
2008-04-09 08:12:41 51°18.28 2°58.394 14.8546 0.208322 1.269086 -1.731873
2008-04-09 08:12:46 51°18.283 2°58.4 14.8553 0.20616 1.25552 -1.766697
2008-04-09 08:12:51 51°18.285 2°58.405 14.8559 0.208322 1.269334 -1.766697
2008-04-09 08:12:56 51°18.288 2°58.41 14.8571 0.207704 1.265125 -1.662225
2008-04-09 08:13:01 51°18.291 2°58.415 14.8585 0.206675 1.258967 -1.766697
2008-04-09 08:13:06 51°18.293 2°58.421 14.859 0.208631 1.271191 -1.697049
2008-04-09 08:13:11 51°18.295 2°58.426 14.8601 0.208631 1.271191 -1.697049
2008-04-09 08:13:16 51°18.298 2°58.431 14.8612 0.206366 1.256766 -1.731873
2008-04-09 08:13:21 51°18.3 2°58.436 14.862 0.207601 1.264687 -1.766697
2008-04-09 08:13:26 51°18.303 2°58.442 14.863 0.205646 1.252147 -1.697049
2008-04-09 08:13:31 51°18.305 2°58.447 14.864 0.207396 1.263614 -1.766697
2008-04-09 08:13:36 51°18.308 2°58.452 14.8652 0.207087 1.261238 -1.627401
2008-04-09 08:13:41 51°18.31 2°58.457 14.866 0.207087 1.261238 -1.627401
2008-04-09 08:13:46 51°18.313 2°58.462 14.8672 0.205646 1.252465 -1.766697
2008-04-09 08:13:51 51°18.315 2°58.467 14.8679 0.207807 1.266008 -1.697049
2008-04-09 08:13:56 51°18.318 2°58.473 14.8689 0.205955 1.254445 -1.766697
2008-04-09 08:14:02 51°18.321 2°58.479 14.8698 0.208219 1.268872 -1.731873
2008-04-09 08:14:06 51°18.322 2°58.483 14.871 0.205749 1.252905 -1.697049
2008-04-09 08:14:11 51°18.325 2°58.489 14.872 0.205749 1.252905 -1.697049
2008-04-09 08:14:16 51°18.327 2°58.494 14.8728 0.207498 1.264422 -1.766697
2008-04-09 08:14:21 51°18.329 2°58.499 14.8739 0.208116 1.268236 -1.697049
2008-04-09 08:14:26 51°18.331 2°58.505 14.8748 0.206984 1.261121 -1.766697
2008-04-09 08:14:31 51°18.333 2°58.51 14.8757 0.208116 1.26846 -1.801521
2008-04-09 08:14:36 51°18.335 2°58.515 14.8765 0.208322 1.269731 -1.697049
2008-04-09 08:14:41 51°18.338 2°58.521 14.8782 0.208322 1.269731 -1.697049
2008-04-09 08:14:46 51°18.339 2°58.526 14.8789 0.206469 1.258287 -1.766697
2008-04-09 08:14:51 51°18.342 2°58.531 14.88 0.208528 1.271923 -1.766697
2008-04-09 08:14:56 51°18.343 2°58.536 14.8808 0.207601 1.265603 -1.627401
2008-04-09 08:15:01 51°18.345 2°58.542 14.8821 0.206984 1.262479 -1.766697
2008-04-09 08:15:06 51°18.347 2°58.547 14.8827 0.211101 1.288256 -1.697049
2008-04-09 08:15:11 51°18.349 2°58.552 14.884 0.211101 1.288256 -1.697049
2008-04-09 08:15:16 51°18.351 2°58.557 14.8848 0.20544 1.25237 -1.697049
2008-04-09 08:15:21 51°18.353 2°58.562 14.8862 0.209454 1.278199 -1.766697
2008-04-09 08:15:26 51°18.354 2°58.568 14.887 0.208734 1.273146 -1.627401
2008-04-09 08:15:31 51°18.356 2°58.573 14.8884 0.20616 1.256429 -1.766697
2008-04-09 08:15:37 51°18.358 2°58.579 14.8895 0.208734 1.272498 -1.731873
2008-04-09 08:15:41 51°18.359 2°58.584 14.8905 0.208734 1.272498 -1.731873
2008-04-09 08:15:46 51°18.36 2°58.589 14.8911 0.206366 1.256766 -1.627401
2008-04-09 08:15:51 51°18.362 2°58.594 14.8925 0.207601 1.264984 -1.766697
2008-04-09 08:15:56 51°18.362 2°58.6 14.8933 0.207704 1.265298 -1.662225
2008-04-09 08:16:01 51°18.362 2°58.605 14.8945 0.206057 1.25513 -1.766697
2008-04-09 08:16:06 51°18.361 2°58.61 14.8955 0.208528 1.271376 -1.766697
2008-04-09 08:16:11 51°18.36 2°58.616 14.8965 0.208528 1.271376 -1.766697
2008-04-09 08:16:17 51°18.358 2°58.621 14.8978 0.208219 1.269791 -1.766697
2008-04-09 08:16:22 51°18.355 2°58.625 14.8989 0.208219 1.270164 -1.766697
2008-04-09 08:16:26 51°18.353 2°58.629 14.8997 0.207293 1.264412 -1.766697
2008-04-09 08:16:31 51°18.349 2°58.632 14.9008 0.208116 1.2701 -1.766697
2008-04-09 08:16:36 51°18.346 2°58.635 14.902 0.208322 1.271348 -1.766697
2008-04-09 08:16:41 51°18.342 2°58.638 14.9032 0.208322 1.271348 -1.766697
2008-04-09 08:16:46 51°18.337 2°58.64 14.9041 0.208322 1.271747 -1.766697
2008-04-09 08:16:51 51°18.332 2°58.641 14.9052 0.208322 1.271796 -1.766697
2008-04-09 08:16:56 51°18.327 2°58.642 14.9063 0.209454 1.278876 -1.766697
2008-04-09 08:17:01 51°18.321 2°58.643 14.9071 0.209763 1.28159 -1.801521
2008-04-09 08:17:06 51°18.316 2°58.642 14.9084 0.209351 1.278765 -1.766697
2008-04-09 08:17:11 51°18.311 2°58.642 14.9092 0.209351 1.278765 -1.766697
2008-04-09 08:17:16 51°18.306 2°58.641 14.9103 0.209557 1.279864 -1.801521
2008-04-09 08:17:22 51°18.3 2°58.639 14.9117 0.20894 1.275367 -1.766697
2008-04-09 08:17:26 51°18.297 2°58.638 14.9124 0.208116 1.270125 -1.766697
2008-04-09 08:17:31 51°18.292 2°58.636 14.914 0.209145 1.276615 -1.766697
2008-04-09 08:17:36 51°18.288 2°58.635 14.9147 0.208425 1.271785 -1.662225
2008-04-09 08:17:41 51°18.283 2°58.633 14.916 0.208425 1.271785 -1.662225
2008-04-09 08:17:46 51°18.279 2°58.631 14.9169 0.206778 1.261602 -1.766697
2008-04-09 08:17:51 51°18.275 2°58.63 14.9177 0.208734 1.274019 -1.731873
2008-04-09 08:17:56 51°18.27 2°58.628 14.9192 0.206778 1.261527 -1.697049
2008-04-09 08:18:01 51°18.267 2°58.627 14.9202 0.207704 1.267702 -1.766697
2008-04-09 08:18:06 51°18.263 2°58.625 14.9212 0.207704 1.267206 -1.627401
2008-04-09 08:18:11 51°18.259 2°58.623 14.9225 0.207704 1.267206 -1.627401
2008-04-09 08:18:16 51°18.256 2°58.622 14.9237 0.205852 1.255553 -1.731873
2008-04-09 08:18:22 51°18.252 2°58.62 14.9246 0.207396 1.265123 -1.731873
2008-04-09 08:18:26 51°18.249 2°58.619 14.9261 0.205749 1.254474 -1.627401
2008-04-09 08:18:31 51°18.246 2°58.617 14.927 0.205955 1.255968 -1.766697
2008-04-09 08:18:36 51°18.242 2°58.616 14.9281 0.206778 1.261009 -1.662225
2008-04-09 08:18:41 51°18.239 2°58.614 14.9294 0.206778 1.261009 -1.662225
2008-04-09 08:18:46 51°18.236 2°58.613 14.9306 0.204822 1.248676 -1.697049
2008-04-09 08:18:51 51°18.233 2°58.612 14.9315 0.20616 1.257314 -1.766697
2008-04-09 08:18:56 51°18.23 2°58.61 14.9327 0.205852 1.255184 -1.662225
2008-04-09 08:19:01 51°18.227 2°58.609 14.9337 0.205131 1.25078 -1.766697
2008-04-09 08:19:06 51°18.224 2°58.607 14.9348 0.20544 1.252738 -1.766697
2008-04-09 08:19:11 51°18.222 2°58.606 14.9361 0.20544 1.252738 -1.766697
2008-04-09 08:19:16 51°18.219 2°58.605 14.9372 0.205337 1.252151 -1.801521
2008-04-09 08:19:21 51°18.216 2°58.603 14.9385 0.205234 1.251539 -1.766697
2008-04-09 08:19:26 51°18.214 2°58.602 14.9396 0.206057 1.256851 -1.731873
2008-04-09 08:19:31 51°18.211 2°58.6 14.9409 0.206057 1.256924 -1.731873
2008-04-09 08:19:36 51°18.209 2°58.599 14.9422 0.205337 1.252494 -1.766697
2008-04-09 08:19:41 51°18.206 2°58.598 14.9433 0.205337 1.252494 -1.766697
2008-04-09 08:19:46 51°18.204 2°58.596 14.9446 0.205749 1.255261 -1.766697
2008-04-09 08:19:51 51°18.202 2°58.595 14.9455 0.206263 1.258468 -1.766697
2008-04-09 08:19:56 51°18.2 2°58.594 14.9467 0.205646 1.254625 -1.766697
2008-04-09 08:20:01 51°18.197 2°58.592 14.9478 0.206881 1.262411 -1.731873
2008-04-09 08:20:06 51°18.195 2°58.591 14.949 0.205543 1.25389 -1.697049
2008-04-09 08:20:11 51°18.193 2°58.59 14.9501 0.205543 1.25389 -1.697049
2008-04-09 08:20:16 51°18.191 2°58.588 14.9517 0.206057 1.257343 -1.766697
2008-04-09 08:20:21 51°18.189 2°58.587 14.9525 0.205749 1.255163 -1.662225
2008-04-09 08:20:26 51°18.187 2°58.586 14.9542 0.205955 1.256485 -1.766697
2008-04-09 08:20:31 51°18.185 2°58.585 14.955 0.206263 1.258394 -1.731873
2008-04-09 08:20:36 51°18.182 2°58.584 14.9564 0.204925 1.249948 -1.731873
2008-04-09 08:20:41 51°18.18 2°58.583 14.9575 0.204925 1.249948 -1.731873
2008-04-09 08:20:46 51°18.177 2°58.582 14.9586 0.206057 1.257392 -1.766697
2008-04-09 08:20:51 51°18.174 2°58.581 14.9602 0.20616 1.25793 -1.766697
2008-04-09 08:20:56 51°18.171 2°58.581 14.9612 0.205543 1.254283 -1.766697
2008-04-09 08:21:01 51°18.168 2°58.58 14.9624 0.207396 1.26619 -1.766697
2008-04-09 08:21:06 51°18.164 2°58.579 14.9636 0.206469 1.260408 -1.766697
2008-04-09 08:21:11 51°18.159 2°58.578 14.9647 0.206469 1.260408 -1.766697
2008-04-09 08:21:17 51°18.154 2°58.576 14.9656 0.207396 1.266711 -1.801521
2008-04-09 08:21:22 51°18.148 2°58.574 14.9669 0.207807 1.269359 -1.766697
2008-04-09 08:21:26 51°18.144 2°58.572 14.9682 0.207807 1.269633 -1.766697
2008-04-09 08:21:31 51°18.139 2°58.569 14.9696 0.209866 1.28278 -1.766697
2008-04-09 08:21:36 51°18.133 2°58.565 14.9709 0.20719 1.265809 -1.766697
2008-04-09 08:21:41 51°18.127 2°58.56 14.9718 0.20719 1.265809 -1.766697
2008-04-09 08:21:46 51°18.122 2°58.554 14.9734 0.20966 1.281858 -1.766697
2008-04-09 08:21:51 51°18.116 2°58.548 14.9742 0.20791 1.270719 -1.766697
2008-04-09 08:21:56 51°18.111 2°58.541 14.9761 0.209969 1.283972 -1.766697
2008-04-09 08:22:01 51°18.105 2°58.533 14.9769 0.208322 1.273294 -1.766697
2008-04-09 08:22:06 51°18.101 2°58.524 14.9784 0.209351 1.280071 -1.766697
2008-04-09 08:22:11 51°18.096 2°58.514 14.9795 0.209351 1.280071 -1.766697
2008-04-09 08:22:16 51°18.092 2°58.504 14.9807 0.210072 1.284408 -1.766697
2008-04-09 08:22:22 51°18.087 2°58.491 14.9818 0.209248 1.280036 -1.766697
2008-04-09 08:22:26 51°18.084 2°58.483 14.9831 0.21141 1.293508 -1.766697
2008-04-09 08:22:31 51°18.08 2°58.471 14.9843 0.209248 1.279483 -1.766697
2008-04-09 08:22:36 51°18.076 2°58.46 14.9853 0.210484 1.287084 -1.801521
2008-04-09 08:22:41 51°18.072 2°58.447 14.9871 0.210484 1.287084 -1.801521
2008-04-09 08:22:46 51°18.068 2°58.435 14.9879 0.208425 1.273382 -1.697049
2008-04-09 08:22:51 51°18.063 2°58.422 14.9894 0.20791 1.27027 -1.801521
2008-04-09 08:22:56 51°18.058 2°58.409 14.9905 0.209248 1.278454 -1.731873
2008-04-09 08:23:01 51°18.054 2°58.395 14.9919 0.20719 1.265536 -1.766697
2008-04-09 08:23:06 51°18.049 2°58.382 14.9931 0.20894 1.276468 -1.766697
2008-04-09 08:23:11 51°18.044 2°58.368 14.9943 0.20894 1.276468 -1.766697
2008-04-09 08:23:16 51°18.039 2°58.353 14.9956 0.206984 1.264113 -1.766697
2008-04-09 08:23:21 51°18.035 2°58.339 14.9968 0.207396 1.266736 -1.766697
2008-04-09 08:23:26 51°18.03 2°58.323 14.9982 0.208013 1.270733 -1.766697
2008-04-09 08:23:31 51°18.025 2°58.308 14.9995 0.207499 1.267299 -1.766697
2008-04-09 08:23:36 51°18.02 2°58.292 15.0008 0.206675 1.262177 -1.801521
2008-04-09 08:23:41 51°18.015 2°58.275 15.0021 0.206675 1.262177 -1.801521
2008-04-09 08:23:46 51°18.009 2°58.257 15.0033 0.206881 1.263501 -1.801521
2008-04-09 08:23:51 51°18.003 2°58.239 15.0047 0.208013 1.270783 -1.766697
2008-04-09 08:23:57 51°17.997 2°58.217 15.006 0.207293 1.266422 -1.766697
2008-04-09 08:24:02 51°17.991 2°58.198 15.0072 0.208425 1.273632 -1.766697
2008-04-09 08:24:06 51°17.986 2°58.182 15.0085 0.20616 1.259239 -1.766697
2008-04-09 08:24:11 51°17.98 2°58.162 15.0099 0.20616 1.259239 -1.766697
2008-04-09 08:24:16 51°17.973 2°58.142 15.0107 0.206778 1.26331 -1.801521
2008-04-09 08:24:21 51°17.967 2°58.121 15.0125 0.208219 1.272432 -1.766697
2008-04-09 08:24:26 51°17.961 2°58.1 15.0136 0.208116 1.27157 -1.731873
2008-04-09 08:24:31 51°17.954 2°58.079 15.0149 0.206675 1.26235 -1.766697
2008-04-09 08:24:36 51°17.947 2°58.058 15.0162 0.207602 1.268383 -1.766697
2008-04-09 08:24:41 51°17.941 2°58.037 15.0179 0.207602 1.268383 -1.766697
2008-04-09 08:24:46 51°17.934 2°58.015 15.0189 0.20791 1.270021 -1.662225
2008-04-09 08:24:51 51°17.927 2°57.994 15.0202 0.206058 1.258256 -1.766697
2008-04-09 08:24:56 51°17.92 2°57.972 15.0211 0.20719 1.265561 -1.766697
2008-04-09 08:25:02 51°17.911 2°57.946 15.0228 0.206984 1.264336 -1.766697
2008-04-09 08:25:06 51°17.905 2°57.929 15.0239 0.206263 1.259802 -1.766697
2008-04-09 08:25:11 51°17.898 2°57.907 15.0251 0.206263 1.259802 -1.766697
2008-04-09 08:25:16 51°17.891 2°57.885 15.0265 0.206881 1.263848 -1.766697
2008-04-09 08:25:21 51°17.883 2°57.863 15.0279 0.207807 1.269658 -1.766697
2008-04-09 08:25:26 51°17.876 2°57.84 15.0291 0.207087 1.265197 -1.766697
2008-04-09 08:25:31 51°17.869 2°57.818 15.0302 0.207704 1.269419 -1.766697
2008-04-09 08:25:36 51°17.862 2°57.795 15.032 0.20719 1.266207 -1.766697
2008-04-09 08:25:42 51°17.854 2°57.767 15.0328 0.20719 1.266207 -1.766697
2008-04-09 08:25:46 51°17.848 2°57.749 15.0341 0.208013 1.271431 -1.766697
2008-04-09 08:25:51 51°17.841 2°57.725 15.0357 0.207807 1.269932 -1.766697
2008-04-09 08:25:56 51°17.833 2°57.701 15.037 0.207087 1.265495 -1.766697
2008-04-09 08:26:01 51°17.826 2°57.677 15.0381 0.206881 1.263749 -1.627401
2008-04-09 08:26:06 51°17.817 2°57.652 15.0394 0.205955 1.257865 -1.766697
2008-04-09 08:26:11 51°17.809 2°57.627 15.0409 0.205955 1.257865 -1.766697
2008-04-09 08:26:16 51°17.801 2°57.602 15.0421 0.206469 1.260903 -1.662225
2008-04-09 08:26:21 51°17.792 2°57.576 15.0437 0.205131 1.252571 -1.766697
2008-04-09 08:26:26 51°17.783 2°57.551 15.0449 0.206469 1.260903 -1.662225
2008-04-09 08:26:31 51°17.774 2°57.524 15.0461 0.204616 1.249018 -1.697049
2008-04-09 08:26:37 51°17.764 2°57.493 15.0473 0.205749 1.256517 -1.766697
2008-04-09 08:26:41 51°17.757 2°57.472 15.049 0.205749 1.256517 -1.766697
2008-04-09 08:26:46 51°17.748 2°57.445 15.0499 0.205234 1.252938 -1.627401
2008-04-09 08:26:51 51°17.739 2°57.419 15.0517 0.204411 1.247744 -1.731873
2008-04-09 08:26:56 51°17.729 2°57.392 15.0526 0.206058 1.258256 -1.731873
2008-04-09 08:27:01 51°17.72 2°57.366 15.0541 0.204822 1.250439 -1.731873
2008-04-09 08:27:06 51°17.711 2°57.339 15.0553 0.204822 1.250685 -1.766697
2008-04-09 08:27:11 51°17.702 2°57.312 15.0569 0.204822 1.250685 -1.766697
2008-04-09 08:27:17 51°17.691 2°57.28 15.0574 0.205234 1.253012 -1.627401
2008-04-09 08:27:22 51°17.683 2°57.253 15.0595 0.203999 1.245392 -1.766697
2008-04-09 08:27:26 51°17.675 2°57.232 15.0604 0.205749 1.256566 -1.766697
2008-04-09 08:27:31 51°17.666 2°57.205 15.0621 0.206058 1.25875 -1.766697
2008-04-09 08:27:36 51°17.658 2°57.178 15.0635 0.205337 1.254042 -1.662225
2008-04-09 08:27:41 51°17.649 2°57.151 15.0643 0.205337 1.254042 -1.662225
2008-04-09 08:27:46 51°17.64 2°57.124 15.0662 0.204514 1.249067 -1.766697
2008-04-09 08:27:51 51°17.631 2°57.098 15.0671 0.20616 1.259313 -1.731873
2008-04-09 08:27:56 51°17.622 2°57.071 15.069 0.204308 1.247719 -1.731873
2008-04-09 08:28:01 51°17.613 2°57.044 15.0702 0.205543 1.255514 -1.766697
2008-04-09 08:28:06 51°17.604 2°57.018 15.0719 0.204822 1.250709 -1.627401
2008-04-09 08:28:11 51°17.595 2°56.991 15.0726 0.204822 1.250709 -1.627401
2008-04-09 08:28:16 51°17.586 2°56.964 15.0738 0.204102 1.246371 -1.766697
2008-04-09 08:28:22 51°17.575 2°56.932 15.0751 0.20616 1.259609 -1.766697
2008-04-09 08:28:26 51°17.568 2°56.91 15.0769 0.204719 1.250317 -1.731873
2008-04-09 08:28:31 51°17.559 2°56.883 15.0779 0.20544 1.25468 -1.662225
2008-04-09 08:28:36 51°17.55 2°56.856 15.0796 0.204514 1.24919 -1.801521
2008-04-09 08:28:41 51°17.541 2°56.829 15.0805 0.204514 1.24919 -1.801521
2008-04-09 08:28:46 51°17.532 2°56.802 15.0818 0.205955 1.258112 -1.662225
2008-04-09 08:28:51 51°17.523 2°56.775 15.0837 0.205646 1.256398 -1.766697
2008-04-09 08:28:56 51°17.514 2°56.748 15.0848 0.204102 1.246298 -1.662225
2008-04-09 08:29:01 51°17.505 2°56.722 15.0858 0.20544 1.255222 -1.766697
2008-04-09 08:29:06 51°17.496 2°56.694 15.0875 0.205337 1.254165 -1.627401
2008-04-09 08:29:11 51°17.487 2°56.668 15.0887 0.205337 1.254165 -1.627401
2008-04-09 08:29:17 51°17.477 2°56.635 15.09 0.204411 1.248504 -1.766697
2008-04-09 08:29:22 51°17.468 2°56.608 15.0913 0.204616 1.249925 -1.766697
2008-04-09 08:29:26 51°17.461 2°56.587 15.0928 0.206058 1.258972 -1.697049
2008-04-09 08:29:31 51°17.452 2°56.559 15.0943 0.204925 1.251666 -1.662225